<?xml version="1.0" encoding="UTF-8" standalone="no" ?>
<gpx xmlns="http://www.topografix.com/GPX/1/1" xmlns:xsi="http://www.w3.org/2001/XMLSchema-instance" xsi:schemaLocation="http://www.topografix.com/GPX/1/1 http://www.topografix.com/GPX/1/1/gpx.xsd" version="1.1" creator="VisuGPX - https://www.visugpx.com">
  <metadata>
    <name>2024-09-21 Séjour Cantal Vallée de la Jordane</name>
    <desc><![CDATA[Départ du village de Tournemire avec le château d'anjony.

Nous étions 5 randonneurs pour faire cette boucle de 10km avec un dénivelé de 320m+. Après le départ au pied du château, nous prenons un petit chemin caillouteux avec un dénivelé de 100m sur 500m.Ensuite nous attaquons une montée de 200m positif sur 2km sur une piste qui avait été endommagée par des engins forestiers, la montée était rude. Ensuite nous sommes arrivés sur le plateau au milieu des prairies avec beaucoup de vaches salers. Au km 6 nous attaquons la descente avec un dénivelé de 200m négatif sur 2km. Puis nous retrouvons la vue sur le château d'Anjony.]]></desc>
  </metadata>
  <trk>
    <name><![CDATA[2024-09-21 17:54:23]]></name>
    <trkseg>
      <trkpt lat="45.05332" lon="2.48604">
        <ele>786.02</ele>
        <time>2024-09-21T12:20:39Z</time>
      </trkpt>
      <trkpt lat="45.05331" lon="2.48598">
        <ele>806.68</ele>
        <time>2024-09-21T12:20:58Z</time>
      </trkpt>
      <trkpt lat="45.05335" lon="2.48583">
        <ele>811.01</ele>
        <time>2024-09-21T12:21:13Z</time>
      </trkpt>
      <trkpt lat="45.05335" lon="2.48576">
        <ele>812.45</ele>
        <time>2024-09-21T12:21:30Z</time>
      </trkpt>
      <trkpt lat="45.05336" lon="2.4856">
        <ele>814.37</ele>
        <time>2024-09-21T12:21:43Z</time>
      </trkpt>
      <trkpt lat="45.05339" lon="2.48543">
        <ele>813.89</ele>
        <time>2024-09-21T12:21:59Z</time>
      </trkpt>
      <trkpt lat="45.05339" lon="2.48538">
        <ele>813.41</ele>
        <time>2024-09-21T12:22:03Z</time>
      </trkpt>
      <trkpt lat="45.05339" lon="2.48526">
        <ele>816.78</ele>
        <time>2024-09-21T12:22:13Z</time>
      </trkpt>
      <trkpt lat="45.05339" lon="2.48523">
        <ele>816.78</ele>
        <time>2024-09-21T12:22:16Z</time>
      </trkpt>
      <trkpt lat="45.05337" lon="2.4851">
        <ele>815.82</ele>
        <time>2024-09-21T12:22:29Z</time>
      </trkpt>
      <trkpt lat="45.05336" lon="2.48502">
        <ele>816.78</ele>
        <time>2024-09-21T12:22:45Z</time>
      </trkpt>
      <trkpt lat="45.05335" lon="2.48501">
        <ele>817.26</ele>
        <time>2024-09-21T12:23:00Z</time>
      </trkpt>
      <trkpt lat="45.05336" lon="2.48498">
        <ele>816.78</ele>
        <time>2024-09-21T12:23:19Z</time>
      </trkpt>
      <trkpt lat="45.05337" lon="2.48501">
        <ele>816.3</ele>
        <time>2024-09-21T12:23:38Z</time>
      </trkpt>
      <trkpt lat="45.05337" lon="2.48504">
        <ele>814.37</ele>
        <time>2024-09-21T12:23:58Z</time>
      </trkpt>
      <trkpt lat="45.05341" lon="2.48506">
        <ele>813.89</ele>
        <time>2024-09-21T12:24:19Z</time>
      </trkpt>
      <trkpt lat="45.05339" lon="2.48508">
        <ele>814.37</ele>
        <time>2024-09-21T12:24:33Z</time>
      </trkpt>
      <trkpt lat="45.05341" lon="2.4851">
        <ele>814.85</ele>
        <time>2024-09-21T12:24:49Z</time>
      </trkpt>
      <trkpt lat="45.05338" lon="2.48508">
        <ele>815.34</ele>
        <time>2024-09-21T12:25:10Z</time>
      </trkpt>
      <trkpt lat="45.05336" lon="2.48505">
        <ele>815.34</ele>
        <time>2024-09-21T12:25:26Z</time>
      </trkpt>
      <trkpt lat="45.05339" lon="2.48504">
        <ele>815.34</ele>
        <time>2024-09-21T12:25:44Z</time>
      </trkpt>
      <trkpt lat="45.0534" lon="2.485">
        <ele>814.85</ele>
        <time>2024-09-21T12:25:56Z</time>
      </trkpt>
      <trkpt lat="45.05337" lon="2.48504">
        <ele>817.26</ele>
        <time>2024-09-21T12:26:16Z</time>
      </trkpt>
      <trkpt lat="45.05333" lon="2.48497">
        <ele>816.78</ele>
        <time>2024-09-21T12:26:36Z</time>
      </trkpt>
      <trkpt lat="45.05333" lon="2.48492">
        <ele>813.89</ele>
        <time>2024-09-21T12:26:52Z</time>
      </trkpt>
      <trkpt lat="45.05332" lon="2.48498">
        <ele>812.93</ele>
        <time>2024-09-21T12:27:03Z</time>
      </trkpt>
      <trkpt lat="45.05335" lon="2.48498">
        <ele>811.01</ele>
        <time>2024-09-21T12:27:19Z</time>
      </trkpt>
      <trkpt lat="45.05334" lon="2.48496">
        <ele>811.49</ele>
        <time>2024-09-21T12:27:32Z</time>
      </trkpt>
      <trkpt lat="45.05334" lon="2.48491">
        <ele>810.05</ele>
        <time>2024-09-21T12:27:48Z</time>
      </trkpt>
      <trkpt lat="45.05334" lon="2.4849">
        <ele>810.05</ele>
        <time>2024-09-21T12:28:01Z</time>
      </trkpt>
      <trkpt lat="45.05333" lon="2.48492">
        <ele>807.64</ele>
        <time>2024-09-21T12:28:36Z</time>
      </trkpt>
      <trkpt lat="45.05335" lon="2.48486">
        <ele>807.64</ele>
        <time>2024-09-21T12:28:53Z</time>
      </trkpt>
      <trkpt lat="45.05334" lon="2.48462">
        <ele>806.2</ele>
        <time>2024-09-21T12:29:07Z</time>
      </trkpt>
      <trkpt lat="45.05334" lon="2.48441">
        <ele>806.2</ele>
        <time>2024-09-21T12:29:21Z</time>
      </trkpt>
      <trkpt lat="45.05335" lon="2.48435">
        <ele>806.2</ele>
        <time>2024-09-21T12:29:25Z</time>
      </trkpt>
      <trkpt lat="45.05347" lon="2.48414">
        <ele>807.64</ele>
        <time>2024-09-21T12:29:44Z</time>
      </trkpt>
      <trkpt lat="45.05362" lon="2.48392">
        <ele>808.61</ele>
        <time>2024-09-21T12:30:03Z</time>
      </trkpt>
      <trkpt lat="45.05375" lon="2.48365">
        <ele>810.05</ele>
        <time>2024-09-21T12:30:22Z</time>
      </trkpt>
      <trkpt lat="45.05378" lon="2.48362">
        <ele>810.05</ele>
        <time>2024-09-21T12:30:25Z</time>
      </trkpt>
      <trkpt lat="45.05391" lon="2.48345">
        <ele>809.57</ele>
        <time>2024-09-21T12:30:42Z</time>
      </trkpt>
      <trkpt lat="45.054" lon="2.48332">
        <ele>809.57</ele>
        <time>2024-09-21T12:30:55Z</time>
      </trkpt>
      <trkpt lat="45.05412" lon="2.48314">
        <ele>811.49</ele>
        <time>2024-09-21T12:31:11Z</time>
      </trkpt>
      <trkpt lat="45.05418" lon="2.48303">
        <ele>812.45</ele>
        <time>2024-09-21T12:31:20Z</time>
      </trkpt>
      <trkpt lat="45.05423" lon="2.48291">
        <ele>812.93</ele>
        <time>2024-09-21T12:31:35Z</time>
      </trkpt>
      <trkpt lat="45.05424" lon="2.48281">
        <ele>813.89</ele>
        <time>2024-09-21T12:31:53Z</time>
      </trkpt>
      <trkpt lat="45.0543" lon="2.48268">
        <ele>815.34</ele>
        <time>2024-09-21T12:32:07Z</time>
      </trkpt>
      <trkpt lat="45.05433" lon="2.48245">
        <ele>817.74</ele>
        <time>2024-09-21T12:32:23Z</time>
      </trkpt>
      <trkpt lat="45.05434" lon="2.48239">
        <ele>818.22</ele>
        <time>2024-09-21T12:32:28Z</time>
      </trkpt>
      <trkpt lat="45.05439" lon="2.48214">
        <ele>817.26</ele>
        <time>2024-09-21T12:32:47Z</time>
      </trkpt>
      <trkpt lat="45.05443" lon="2.48186">
        <ele>817.74</ele>
        <time>2024-09-21T12:33:03Z</time>
      </trkpt>
      <trkpt lat="45.05445" lon="2.4818">
        <ele>817.74</ele>
        <time>2024-09-21T12:33:07Z</time>
      </trkpt>
      <trkpt lat="45.05445" lon="2.48155">
        <ele>816.78</ele>
        <time>2024-09-21T12:33:25Z</time>
      </trkpt>
      <trkpt lat="45.05445" lon="2.4815">
        <ele>817.74</ele>
        <time>2024-09-21T12:33:42Z</time>
      </trkpt>
      <trkpt lat="45.05443" lon="2.48136">
        <ele>817.74</ele>
        <time>2024-09-21T12:33:49Z</time>
      </trkpt>
      <trkpt lat="45.0544" lon="2.48117">
        <ele>815.34</ele>
        <time>2024-09-21T12:34:06Z</time>
      </trkpt>
      <trkpt lat="45.05437" lon="2.48103">
        <ele>811.49</ele>
        <time>2024-09-21T12:34:21Z</time>
      </trkpt>
      <trkpt lat="45.05436" lon="2.48088">
        <ele>806.68</ele>
        <time>2024-09-21T12:34:37Z</time>
      </trkpt>
      <trkpt lat="45.05433" lon="2.48066">
        <ele>806.2</ele>
        <time>2024-09-21T12:34:54Z</time>
      </trkpt>
      <trkpt lat="45.05427" lon="2.48048">
        <ele>804.28</ele>
        <time>2024-09-21T12:35:12Z</time>
      </trkpt>
      <trkpt lat="45.05427" lon="2.48035">
        <ele>801.88</ele>
        <time>2024-09-21T12:35:29Z</time>
      </trkpt>
      <trkpt lat="45.05426" lon="2.48029">
        <ele>796.59</ele>
        <time>2024-09-21T12:35:45Z</time>
      </trkpt>
      <trkpt lat="45.05425" lon="2.48032">
        <ele>791.3</ele>
        <time>2024-09-21T12:36:18Z</time>
      </trkpt>
      <trkpt lat="45.0542" lon="2.48036">
        <ele>789.86</ele>
        <time>2024-09-21T12:36:37Z</time>
      </trkpt>
      <trkpt lat="45.05417" lon="2.48029">
        <ele>790.34</ele>
        <time>2024-09-21T12:36:50Z</time>
      </trkpt>
      <trkpt lat="45.05418" lon="2.48028">
        <ele>788.9</ele>
        <time>2024-09-21T12:37:09Z</time>
      </trkpt>
      <trkpt lat="45.05421" lon="2.48026">
        <ele>790.34</ele>
        <time>2024-09-21T12:37:42Z</time>
      </trkpt>
      <trkpt lat="45.05418" lon="2.48026">
        <ele>797.55</ele>
        <time>2024-09-21T12:38:08Z</time>
      </trkpt>
      <trkpt lat="45.05423" lon="2.48029">
        <ele>797.07</ele>
        <time>2024-09-21T12:38:26Z</time>
      </trkpt>
      <trkpt lat="45.05424" lon="2.48026">
        <ele>798.03</ele>
        <time>2024-09-21T12:38:31Z</time>
      </trkpt>
      <trkpt lat="45.05426" lon="2.48027">
        <ele>802.84</ele>
        <time>2024-09-21T12:38:44Z</time>
      </trkpt>
      <trkpt lat="45.05419" lon="2.48027">
        <ele>808.13</ele>
        <time>2024-09-21T12:39:02Z</time>
      </trkpt>
      <trkpt lat="45.05415" lon="2.48029">
        <ele>810.53</ele>
        <time>2024-09-21T12:39:18Z</time>
      </trkpt>
      <trkpt lat="45.05414" lon="2.48031">
        <ele>808.13</ele>
        <time>2024-09-21T12:39:54Z</time>
      </trkpt>
      <trkpt lat="45.05416" lon="2.48025">
        <ele>805.72</ele>
        <time>2024-09-21T12:40:11Z</time>
      </trkpt>
      <trkpt lat="45.05418" lon="2.48014">
        <ele>802.36</ele>
        <time>2024-09-21T12:40:24Z</time>
      </trkpt>
      <trkpt lat="45.05419" lon="2.48004">
        <ele>810.53</ele>
        <time>2024-09-21T12:40:38Z</time>
      </trkpt>
      <trkpt lat="45.05418" lon="2.48011">
        <ele>810.05</ele>
        <time>2024-09-21T12:41:04Z</time>
      </trkpt>
      <trkpt lat="45.05417" lon="2.48012">
        <ele>801.88</ele>
        <time>2024-09-21T12:41:19Z</time>
      </trkpt>
      <trkpt lat="45.05416" lon="2.48016">
        <ele>798.03</ele>
        <time>2024-09-21T12:41:37Z</time>
      </trkpt>
      <trkpt lat="45.05416" lon="2.48017">
        <ele>792.74</ele>
        <time>2024-09-21T12:42:03Z</time>
      </trkpt>
      <trkpt lat="45.05415" lon="2.48012">
        <ele>790.82</ele>
        <time>2024-09-21T12:42:34Z</time>
      </trkpt>
      <trkpt lat="45.05412" lon="2.48004">
        <ele>791.3</ele>
        <time>2024-09-21T12:42:49Z</time>
      </trkpt>
      <trkpt lat="45.05406" lon="2.48">
        <ele>791.78</ele>
        <time>2024-09-21T12:43:03Z</time>
      </trkpt>
      <trkpt lat="45.05401" lon="2.47991">
        <ele>791.3</ele>
        <time>2024-09-21T12:43:16Z</time>
      </trkpt>
      <trkpt lat="45.05395" lon="2.47982">
        <ele>788.9</ele>
        <time>2024-09-21T12:43:32Z</time>
      </trkpt>
      <trkpt lat="45.05394" lon="2.47979">
        <ele>783.61</ele>
        <time>2024-09-21T12:43:46Z</time>
      </trkpt>
      <trkpt lat="45.05391" lon="2.4796">
        <ele>779.29</ele>
        <time>2024-09-21T12:44:03Z</time>
      </trkpt>
      <trkpt lat="45.0539" lon="2.47953">
        <ele>777.36</ele>
        <time>2024-09-21T12:44:15Z</time>
      </trkpt>
      <trkpt lat="45.05385" lon="2.47945">
        <ele>771.6</ele>
        <time>2024-09-21T12:44:38Z</time>
      </trkpt>
      <trkpt lat="45.05375" lon="2.47941">
        <ele>770.63</ele>
        <time>2024-09-21T12:44:57Z</time>
      </trkpt>
      <trkpt lat="45.05364" lon="2.47942">
        <ele>769.19</ele>
        <time>2024-09-21T12:45:18Z</time>
      </trkpt>
      <trkpt lat="45.0536" lon="2.47947">
        <ele>768.23</ele>
        <time>2024-09-21T12:45:42Z</time>
      </trkpt>
      <trkpt lat="45.05358" lon="2.47955">
        <ele>764.87</ele>
        <time>2024-09-21T12:45:56Z</time>
      </trkpt>
      <trkpt lat="45.05354" lon="2.47964">
        <ele>766.31</ele>
        <time>2024-09-21T12:46:12Z</time>
      </trkpt>
      <trkpt lat="45.05352" lon="2.47972">
        <ele>766.79</ele>
        <time>2024-09-21T12:46:30Z</time>
      </trkpt>
      <trkpt lat="45.0535" lon="2.47972">
        <ele>765.35</ele>
        <time>2024-09-21T12:46:57Z</time>
      </trkpt>
      <trkpt lat="45.05351" lon="2.47974">
        <ele>764.39</ele>
        <time>2024-09-21T12:47:19Z</time>
      </trkpt>
      <trkpt lat="45.05346" lon="2.47982">
        <ele>761.02</ele>
        <time>2024-09-21T12:47:39Z</time>
      </trkpt>
      <trkpt lat="45.05334" lon="2.4799">
        <ele>759.1</ele>
        <time>2024-09-21T12:47:57Z</time>
      </trkpt>
      <trkpt lat="45.0532" lon="2.47988">
        <ele>755.73</ele>
        <time>2024-09-21T12:48:16Z</time>
      </trkpt>
      <trkpt lat="45.05309" lon="2.47976">
        <ele>751.89</ele>
        <time>2024-09-21T12:48:31Z</time>
      </trkpt>
      <trkpt lat="45.05298" lon="2.47969">
        <ele>748.04</ele>
        <time>2024-09-21T12:48:46Z</time>
      </trkpt>
      <trkpt lat="45.05288" lon="2.47963">
        <ele>744.2</ele>
        <time>2024-09-21T12:49:00Z</time>
      </trkpt>
      <trkpt lat="45.05272" lon="2.47954">
        <ele>740.35</ele>
        <time>2024-09-21T12:49:20Z</time>
      </trkpt>
      <trkpt lat="45.05252" lon="2.4795">
        <ele>739.39</ele>
        <time>2024-09-21T12:49:41Z</time>
      </trkpt>
      <trkpt lat="45.0524" lon="2.47952">
        <ele>740.83</ele>
        <time>2024-09-21T12:49:58Z</time>
      </trkpt>
      <trkpt lat="45.05234" lon="2.47961">
        <ele>742.28</ele>
        <time>2024-09-21T12:50:19Z</time>
      </trkpt>
      <trkpt lat="45.05226" lon="2.47972">
        <ele>742.28</ele>
        <time>2024-09-21T12:50:39Z</time>
      </trkpt>
      <trkpt lat="45.05225" lon="2.47975">
        <ele>742.76</ele>
        <time>2024-09-21T12:50:58Z</time>
      </trkpt>
      <trkpt lat="45.05224" lon="2.47978">
        <ele>741.31</ele>
        <time>2024-09-21T12:51:10Z</time>
      </trkpt>
      <trkpt lat="45.05217" lon="2.47987">
        <ele>739.87</ele>
        <time>2024-09-21T12:51:23Z</time>
      </trkpt>
      <trkpt lat="45.05208" lon="2.48001">
        <ele>738.91</ele>
        <time>2024-09-21T12:51:38Z</time>
      </trkpt>
      <trkpt lat="45.05196" lon="2.48018">
        <ele>736.03</ele>
        <time>2024-09-21T12:51:54Z</time>
      </trkpt>
      <trkpt lat="45.0518" lon="2.48029">
        <ele>731.7</ele>
        <time>2024-09-21T12:52:10Z</time>
      </trkpt>
      <trkpt lat="45.05154" lon="2.48032">
        <ele>731.22</ele>
        <time>2024-09-21T12:52:30Z</time>
      </trkpt>
      <trkpt lat="45.05133" lon="2.48032">
        <ele>728.82</ele>
        <time>2024-09-21T12:52:48Z</time>
      </trkpt>
      <trkpt lat="45.05119" lon="2.48038">
        <ele>725.45</ele>
        <time>2024-09-21T12:53:06Z</time>
      </trkpt>
      <trkpt lat="45.05102" lon="2.48052">
        <ele>723.05</ele>
        <time>2024-09-21T12:53:25Z</time>
      </trkpt>
      <trkpt lat="45.05084" lon="2.48066">
        <ele>723.05</ele>
        <time>2024-09-21T12:53:45Z</time>
      </trkpt>
      <trkpt lat="45.05081" lon="2.48068">
        <ele>722.57</ele>
        <time>2024-09-21T12:53:48Z</time>
      </trkpt>
      <trkpt lat="45.05063" lon="2.48088">
        <ele>722.57</ele>
        <time>2024-09-21T12:54:07Z</time>
      </trkpt>
      <trkpt lat="45.05043" lon="2.48107">
        <ele>722.09</ele>
        <time>2024-09-21T12:54:25Z</time>
      </trkpt>
      <trkpt lat="45.05022" lon="2.48112">
        <ele>720.16</ele>
        <time>2024-09-21T12:54:43Z</time>
      </trkpt>
      <trkpt lat="45.05018" lon="2.48111">
        <ele>720.16</ele>
        <time>2024-09-21T12:54:47Z</time>
      </trkpt>
      <trkpt lat="45.04993" lon="2.48105">
        <ele>717.76</ele>
        <time>2024-09-21T12:55:06Z</time>
      </trkpt>
      <trkpt lat="45.04987" lon="2.48108">
        <ele>716.32</ele>
        <time>2024-09-21T12:55:12Z</time>
      </trkpt>
      <trkpt lat="45.04968" lon="2.48128">
        <ele>720.65</ele>
        <time>2024-09-21T12:55:32Z</time>
      </trkpt>
      <trkpt lat="45.04973" lon="2.48141">
        <ele>722.09</ele>
        <time>2024-09-21T12:55:51Z</time>
      </trkpt>
      <trkpt lat="45.04974" lon="2.48149">
        <ele>723.53</ele>
        <time>2024-09-21T12:56:07Z</time>
      </trkpt>
      <trkpt lat="45.04968" lon="2.48157">
        <ele>723.05</ele>
        <time>2024-09-21T12:56:24Z</time>
      </trkpt>
      <trkpt lat="45.04957" lon="2.48161">
        <ele>721.61</ele>
        <time>2024-09-21T12:56:40Z</time>
      </trkpt>
      <trkpt lat="45.04944" lon="2.48161">
        <ele>721.61</ele>
        <time>2024-09-21T12:56:55Z</time>
      </trkpt>
      <trkpt lat="45.04932" lon="2.48165">
        <ele>721.61</ele>
        <time>2024-09-21T12:57:10Z</time>
      </trkpt>
      <trkpt lat="45.04924" lon="2.48166">
        <ele>721.61</ele>
        <time>2024-09-21T12:57:26Z</time>
      </trkpt>
      <trkpt lat="45.0491" lon="2.48168">
        <ele>722.57</ele>
        <time>2024-09-21T12:57:45Z</time>
      </trkpt>
      <trkpt lat="45.04899" lon="2.4817">
        <ele>726.41</ele>
        <time>2024-09-21T12:58:02Z</time>
      </trkpt>
      <trkpt lat="45.0489" lon="2.48177">
        <ele>728.82</ele>
        <time>2024-09-21T12:58:18Z</time>
      </trkpt>
      <trkpt lat="45.04881" lon="2.48187">
        <ele>731.22</ele>
        <time>2024-09-21T12:58:34Z</time>
      </trkpt>
      <trkpt lat="45.04874" lon="2.48198">
        <ele>734.58</ele>
        <time>2024-09-21T12:58:50Z</time>
      </trkpt>
      <trkpt lat="45.04867" lon="2.48207">
        <ele>735.07</ele>
        <time>2024-09-21T12:59:09Z</time>
      </trkpt>
      <trkpt lat="45.04864" lon="2.48203">
        <ele>739.87</ele>
        <time>2024-09-21T12:59:28Z</time>
      </trkpt>
      <trkpt lat="45.04863" lon="2.48184">
        <ele>744.2</ele>
        <time>2024-09-21T12:59:45Z</time>
      </trkpt>
      <trkpt lat="45.04863" lon="2.48171">
        <ele>742.28</ele>
        <time>2024-09-21T13:00:00Z</time>
      </trkpt>
      <trkpt lat="45.04863" lon="2.4817">
        <ele>741.79</ele>
        <time>2024-09-21T13:00:13Z</time>
      </trkpt>
      <trkpt lat="45.04862" lon="2.48167">
        <ele>744.2</ele>
        <time>2024-09-21T13:00:31Z</time>
      </trkpt>
      <trkpt lat="45.04859" lon="2.48165">
        <ele>749</ele>
        <time>2024-09-21T13:00:51Z</time>
      </trkpt>
      <trkpt lat="45.0486" lon="2.48163">
        <ele>752.37</ele>
        <time>2024-09-21T13:01:10Z</time>
      </trkpt>
      <trkpt lat="45.04861" lon="2.48158">
        <ele>752.85</ele>
        <time>2024-09-21T13:01:23Z</time>
      </trkpt>
      <trkpt lat="45.04855" lon="2.48149">
        <ele>750.93</ele>
        <time>2024-09-21T13:01:40Z</time>
      </trkpt>
      <trkpt lat="45.04851" lon="2.48136">
        <ele>749.49</ele>
        <time>2024-09-21T13:01:53Z</time>
      </trkpt>
      <trkpt lat="45.04849" lon="2.48129">
        <ele>745.64</ele>
        <time>2024-09-21T13:02:09Z</time>
      </trkpt>
      <trkpt lat="45.04849" lon="2.48113">
        <ele>746.12</ele>
        <time>2024-09-21T13:02:21Z</time>
      </trkpt>
      <trkpt lat="45.04846" lon="2.48107">
        <ele>744.68</ele>
        <time>2024-09-21T13:02:33Z</time>
      </trkpt>
      <trkpt lat="45.04848" lon="2.48106">
        <ele>747.08</ele>
        <time>2024-09-21T13:03:00Z</time>
      </trkpt>
      <trkpt lat="45.04847" lon="2.48091">
        <ele>751.89</ele>
        <time>2024-09-21T13:03:12Z</time>
      </trkpt>
      <trkpt lat="45.04847" lon="2.48068">
        <ele>753.33</ele>
        <time>2024-09-21T13:03:30Z</time>
      </trkpt>
      <trkpt lat="45.04847" lon="2.4805">
        <ele>753.33</ele>
        <time>2024-09-21T13:03:47Z</time>
      </trkpt>
      <trkpt lat="45.04848" lon="2.48031">
        <ele>753.33</ele>
        <time>2024-09-21T13:04:07Z</time>
      </trkpt>
      <trkpt lat="45.04848" lon="2.48009">
        <ele>754.77</ele>
        <time>2024-09-21T13:04:26Z</time>
      </trkpt>
      <trkpt lat="45.04847" lon="2.47992">
        <ele>759.1</ele>
        <time>2024-09-21T13:04:41Z</time>
      </trkpt>
      <trkpt lat="45.04844" lon="2.47979">
        <ele>761.02</ele>
        <time>2024-09-21T13:04:55Z</time>
      </trkpt>
      <trkpt lat="45.04841" lon="2.47968">
        <ele>762.46</ele>
        <time>2024-09-21T13:05:09Z</time>
      </trkpt>
      <trkpt lat="45.04843" lon="2.4795">
        <ele>764.39</ele>
        <time>2024-09-21T13:05:28Z</time>
      </trkpt>
      <trkpt lat="45.04852" lon="2.47938">
        <ele>772.56</ele>
        <time>2024-09-21T13:05:47Z</time>
      </trkpt>
      <trkpt lat="45.04853" lon="2.47926">
        <ele>774.96</ele>
        <time>2024-09-21T13:06:01Z</time>
      </trkpt>
      <trkpt lat="45.04843" lon="2.47909">
        <ele>774.96</ele>
        <time>2024-09-21T13:06:20Z</time>
      </trkpt>
      <trkpt lat="45.04835" lon="2.47897">
        <ele>777.84</ele>
        <time>2024-09-21T13:06:39Z</time>
      </trkpt>
      <trkpt lat="45.04829" lon="2.47884">
        <ele>778.32</ele>
        <time>2024-09-21T13:06:56Z</time>
      </trkpt>
      <trkpt lat="45.04821" lon="2.47877">
        <ele>776.4</ele>
        <time>2024-09-21T13:07:14Z</time>
      </trkpt>
      <trkpt lat="45.04811" lon="2.4787">
        <ele>776.4</ele>
        <time>2024-09-21T13:07:32Z</time>
      </trkpt>
      <trkpt lat="45.04812" lon="2.47871">
        <ele>774</ele>
        <time>2024-09-21T13:07:53Z</time>
      </trkpt>
      <trkpt lat="45.04811" lon="2.47874">
        <ele>769.67</ele>
        <time>2024-09-21T13:08:20Z</time>
      </trkpt>
      <trkpt lat="45.04813" lon="2.4787">
        <ele>767.27</ele>
        <time>2024-09-21T13:08:46Z</time>
      </trkpt>
      <trkpt lat="45.04808" lon="2.47869">
        <ele>777.36</ele>
        <time>2024-09-21T13:09:09Z</time>
      </trkpt>
      <trkpt lat="45.04801" lon="2.47862">
        <ele>785.05</ele>
        <time>2024-09-21T13:09:26Z</time>
      </trkpt>
      <trkpt lat="45.04784" lon="2.47852">
        <ele>798.03</ele>
        <time>2024-09-21T13:09:46Z</time>
      </trkpt>
      <trkpt lat="45.04775" lon="2.47845">
        <ele>798.51</ele>
        <time>2024-09-21T13:10:04Z</time>
      </trkpt>
      <trkpt lat="45.04763" lon="2.47845">
        <ele>798.03</ele>
        <time>2024-09-21T13:10:25Z</time>
      </trkpt>
      <trkpt lat="45.04754" lon="2.47848">
        <ele>795.15</ele>
        <time>2024-09-21T13:10:40Z</time>
      </trkpt>
      <trkpt lat="45.04744" lon="2.47844">
        <ele>797.55</ele>
        <time>2024-09-21T13:10:59Z</time>
      </trkpt>
      <trkpt lat="45.04727" lon="2.47841">
        <ele>806.2</ele>
        <time>2024-09-21T13:11:21Z</time>
      </trkpt>
      <trkpt lat="45.04717" lon="2.47831">
        <ele>818.22</ele>
        <time>2024-09-21T13:11:38Z</time>
      </trkpt>
      <trkpt lat="45.0471" lon="2.47827">
        <ele>821.1</ele>
        <time>2024-09-21T13:11:57Z</time>
      </trkpt>
      <trkpt lat="45.04705" lon="2.47818">
        <ele>826.87</ele>
        <time>2024-09-21T13:12:14Z</time>
      </trkpt>
      <trkpt lat="45.04695" lon="2.47817">
        <ele>825.43</ele>
        <time>2024-09-21T13:12:30Z</time>
      </trkpt>
      <trkpt lat="45.0469" lon="2.47818">
        <ele>824.47</ele>
        <time>2024-09-21T13:12:42Z</time>
      </trkpt>
      <trkpt lat="45.0468" lon="2.47819">
        <ele>823.03</ele>
        <time>2024-09-21T13:13:00Z</time>
      </trkpt>
      <trkpt lat="45.04672" lon="2.47821">
        <ele>822.55</ele>
        <time>2024-09-21T13:13:15Z</time>
      </trkpt>
      <trkpt lat="45.04662" lon="2.47823">
        <ele>819.18</ele>
        <time>2024-09-21T13:13:31Z</time>
      </trkpt>
      <trkpt lat="45.04651" lon="2.47821">
        <ele>816.78</ele>
        <time>2024-09-21T13:13:49Z</time>
      </trkpt>
      <trkpt lat="45.04638" lon="2.47816">
        <ele>815.34</ele>
        <time>2024-09-21T13:14:07Z</time>
      </trkpt>
      <trkpt lat="45.04624" lon="2.47822">
        <ele>816.78</ele>
        <time>2024-09-21T13:14:26Z</time>
      </trkpt>
      <trkpt lat="45.04618" lon="2.4783">
        <ele>818.7</ele>
        <time>2024-09-21T13:14:41Z</time>
      </trkpt>
      <trkpt lat="45.0461" lon="2.4784">
        <ele>820.14</ele>
        <time>2024-09-21T13:15:00Z</time>
      </trkpt>
      <trkpt lat="45.04603" lon="2.47848">
        <ele>824.95</ele>
        <time>2024-09-21T13:15:21Z</time>
      </trkpt>
      <trkpt lat="45.04591" lon="2.47856">
        <ele>830.24</ele>
        <time>2024-09-21T13:15:39Z</time>
      </trkpt>
      <trkpt lat="45.04583" lon="2.47864">
        <ele>830.72</ele>
        <time>2024-09-21T13:15:58Z</time>
      </trkpt>
      <trkpt lat="45.04578" lon="2.47875">
        <ele>828.79</ele>
        <time>2024-09-21T13:16:17Z</time>
      </trkpt>
      <trkpt lat="45.04578" lon="2.47877">
        <ele>833.12</ele>
        <time>2024-09-21T13:16:42Z</time>
      </trkpt>
      <trkpt lat="45.04568" lon="2.47891">
        <ele>834.08</ele>
        <time>2024-09-21T13:16:58Z</time>
      </trkpt>
      <trkpt lat="45.04559" lon="2.47897">
        <ele>836.96</ele>
        <time>2024-09-21T13:17:14Z</time>
      </trkpt>
      <trkpt lat="45.04555" lon="2.47906">
        <ele>837.93</ele>
        <time>2024-09-21T13:17:28Z</time>
      </trkpt>
      <trkpt lat="45.04546" lon="2.47915">
        <ele>843.21</ele>
        <time>2024-09-21T13:17:43Z</time>
      </trkpt>
      <trkpt lat="45.04543" lon="2.4792">
        <ele>848.02</ele>
        <time>2024-09-21T13:17:57Z</time>
      </trkpt>
      <trkpt lat="45.04544" lon="2.4792">
        <ele>848.5</ele>
        <time>2024-09-21T13:18:20Z</time>
      </trkpt>
      <trkpt lat="45.04542" lon="2.47918">
        <ele>854.27</ele>
        <time>2024-09-21T13:18:40Z</time>
      </trkpt>
      <trkpt lat="45.04542" lon="2.47926">
        <ele>855.71</ele>
        <time>2024-09-21T13:18:59Z</time>
      </trkpt>
      <trkpt lat="45.04536" lon="2.47939">
        <ele>854.75</ele>
        <time>2024-09-21T13:19:14Z</time>
      </trkpt>
      <trkpt lat="45.04531" lon="2.47955">
        <ele>854.27</ele>
        <time>2024-09-21T13:19:31Z</time>
      </trkpt>
      <trkpt lat="45.04524" lon="2.47969">
        <ele>855.71</ele>
        <time>2024-09-21T13:19:46Z</time>
      </trkpt>
      <trkpt lat="45.04519" lon="2.47978">
        <ele>855.71</ele>
        <time>2024-09-21T13:20:03Z</time>
      </trkpt>
      <trkpt lat="45.04515" lon="2.47985">
        <ele>857.63</ele>
        <time>2024-09-21T13:20:19Z</time>
      </trkpt>
      <trkpt lat="45.04511" lon="2.47992">
        <ele>859.56</ele>
        <time>2024-09-21T13:20:36Z</time>
      </trkpt>
      <trkpt lat="45.04503" lon="2.48003">
        <ele>863.4</ele>
        <time>2024-09-21T13:20:52Z</time>
      </trkpt>
      <trkpt lat="45.04495" lon="2.48012">
        <ele>866.77</ele>
        <time>2024-09-21T13:21:07Z</time>
      </trkpt>
      <trkpt lat="45.0449" lon="2.48018">
        <ele>870.13</ele>
        <time>2024-09-21T13:21:22Z</time>
      </trkpt>
      <trkpt lat="45.04485" lon="2.48028">
        <ele>870.61</ele>
        <time>2024-09-21T13:21:40Z</time>
      </trkpt>
      <trkpt lat="45.04483" lon="2.48033">
        <ele>867.25</ele>
        <time>2024-09-21T13:22:02Z</time>
      </trkpt>
      <trkpt lat="45.04483" lon="2.48034">
        <ele>870.61</ele>
        <time>2024-09-21T13:22:24Z</time>
      </trkpt>
      <trkpt lat="45.04491" lon="2.48018">
        <ele>873.5</ele>
        <time>2024-09-21T13:22:50Z</time>
      </trkpt>
      <trkpt lat="45.04491" lon="2.48017">
        <ele>876.38</ele>
        <time>2024-09-21T13:23:11Z</time>
      </trkpt>
      <trkpt lat="45.04492" lon="2.48016">
        <ele>876.86</ele>
        <time>2024-09-21T13:23:42Z</time>
      </trkpt>
      <trkpt lat="45.04482" lon="2.48023">
        <ele>878.3</ele>
        <time>2024-09-21T13:24:09Z</time>
      </trkpt>
      <trkpt lat="45.0447" lon="2.48028">
        <ele>878.78</ele>
        <time>2024-09-21T13:24:25Z</time>
      </trkpt>
      <trkpt lat="45.04459" lon="2.48031">
        <ele>876.86</ele>
        <time>2024-09-21T13:24:38Z</time>
      </trkpt>
      <trkpt lat="45.0445" lon="2.48039">
        <ele>873.98</ele>
        <time>2024-09-21T13:24:54Z</time>
      </trkpt>
      <trkpt lat="45.04435" lon="2.48044">
        <ele>868.21</ele>
        <time>2024-09-21T13:25:14Z</time>
      </trkpt>
      <trkpt lat="45.04421" lon="2.48035">
        <ele>861</ele>
        <time>2024-09-21T13:25:30Z</time>
      </trkpt>
      <trkpt lat="45.04405" lon="2.48025">
        <ele>848.98</ele>
        <time>2024-09-21T13:25:49Z</time>
      </trkpt>
      <trkpt lat="45.04393" lon="2.48012">
        <ele>840.33</ele>
        <time>2024-09-21T13:26:05Z</time>
      </trkpt>
      <trkpt lat="45.04387" lon="2.47995">
        <ele>838.89</ele>
        <time>2024-09-21T13:26:20Z</time>
      </trkpt>
      <trkpt lat="45.04377" lon="2.47988">
        <ele>836.48</ele>
        <time>2024-09-21T13:26:36Z</time>
      </trkpt>
      <trkpt lat="45.04365" lon="2.47979">
        <ele>832.16</ele>
        <time>2024-09-21T13:26:55Z</time>
      </trkpt>
      <trkpt lat="45.04354" lon="2.47976">
        <ele>826.87</ele>
        <time>2024-09-21T13:27:11Z</time>
      </trkpt>
      <trkpt lat="45.04338" lon="2.47973">
        <ele>823.51</ele>
        <time>2024-09-21T13:27:29Z</time>
      </trkpt>
      <trkpt lat="45.04319" lon="2.47965">
        <ele>826.39</ele>
        <time>2024-09-21T13:27:44Z</time>
      </trkpt>
      <trkpt lat="45.04311" lon="2.47946">
        <ele>828.31</ele>
        <time>2024-09-21T13:27:59Z</time>
      </trkpt>
      <trkpt lat="45.04309" lon="2.47914">
        <ele>837.93</ele>
        <time>2024-09-21T13:28:19Z</time>
      </trkpt>
      <trkpt lat="45.04302" lon="2.47888">
        <ele>847.06</ele>
        <time>2024-09-21T13:28:36Z</time>
      </trkpt>
      <trkpt lat="45.04297" lon="2.47872">
        <ele>844.66</ele>
        <time>2024-09-21T13:28:54Z</time>
      </trkpt>
      <trkpt lat="45.04298" lon="2.47854">
        <ele>836.48</ele>
        <time>2024-09-21T13:29:11Z</time>
      </trkpt>
      <trkpt lat="45.04288" lon="2.47816">
        <ele>854.27</ele>
        <time>2024-09-21T13:29:26Z</time>
      </trkpt>
      <trkpt lat="45.04293" lon="2.47801">
        <ele>862.44</ele>
        <time>2024-09-21T13:29:41Z</time>
      </trkpt>
      <trkpt lat="45.04304" lon="2.47786">
        <ele>878.78</ele>
        <time>2024-09-21T13:29:57Z</time>
      </trkpt>
      <trkpt lat="45.04309" lon="2.47764">
        <ele>893.2</ele>
        <time>2024-09-21T13:30:17Z</time>
      </trkpt>
      <trkpt lat="45.04302" lon="2.47751">
        <ele>894.16</ele>
        <time>2024-09-21T13:30:35Z</time>
      </trkpt>
      <trkpt lat="45.04293" lon="2.4775">
        <ele>895.12</ele>
        <time>2024-09-21T13:30:52Z</time>
      </trkpt>
      <trkpt lat="45.04284" lon="2.47744">
        <ele>894.64</ele>
        <time>2024-09-21T13:31:10Z</time>
      </trkpt>
      <trkpt lat="45.04273" lon="2.47734">
        <ele>891.28</ele>
        <time>2024-09-21T13:31:27Z</time>
      </trkpt>
      <trkpt lat="45.04261" lon="2.47724">
        <ele>887.43</ele>
        <time>2024-09-21T13:31:50Z</time>
      </trkpt>
      <trkpt lat="45.0425" lon="2.47714">
        <ele>887.43</ele>
        <time>2024-09-21T13:32:08Z</time>
      </trkpt>
      <trkpt lat="45.0424" lon="2.47704">
        <ele>891.28</ele>
        <time>2024-09-21T13:32:23Z</time>
      </trkpt>
      <trkpt lat="45.0423" lon="2.47686">
        <ele>904.26</ele>
        <time>2024-09-21T13:32:39Z</time>
      </trkpt>
      <trkpt lat="45.04226" lon="2.47681">
        <ele>909.06</ele>
        <time>2024-09-21T13:32:54Z</time>
      </trkpt>
      <trkpt lat="45.0422" lon="2.47676">
        <ele>910.03</ele>
        <time>2024-09-21T13:33:08Z</time>
      </trkpt>
      <trkpt lat="45.04217" lon="2.47671">
        <ele>910.99</ele>
        <time>2024-09-21T13:33:19Z</time>
      </trkpt>
      <trkpt lat="45.04208" lon="2.47657">
        <ele>911.47</ele>
        <time>2024-09-21T13:33:32Z</time>
      </trkpt>
      <trkpt lat="45.04191" lon="2.47639">
        <ele>909.54</ele>
        <time>2024-09-21T13:33:51Z</time>
      </trkpt>
      <trkpt lat="45.04178" lon="2.47624">
        <ele>907.62</ele>
        <time>2024-09-21T13:34:06Z</time>
      </trkpt>
      <trkpt lat="45.04168" lon="2.47611">
        <ele>907.62</ele>
        <time>2024-09-21T13:34:25Z</time>
      </trkpt>
      <trkpt lat="45.04169" lon="2.47609">
        <ele>908.58</ele>
        <time>2024-09-21T13:34:37Z</time>
      </trkpt>
      <trkpt lat="45.04159" lon="2.476">
        <ele>910.03</ele>
        <time>2024-09-21T13:34:48Z</time>
      </trkpt>
      <trkpt lat="45.04152" lon="2.47594">
        <ele>908.58</ele>
        <time>2024-09-21T13:34:59Z</time>
      </trkpt>
      <trkpt lat="45.04148" lon="2.47588">
        <ele>906.18</ele>
        <time>2024-09-21T13:35:18Z</time>
      </trkpt>
      <trkpt lat="45.04137" lon="2.47579">
        <ele>904.74</ele>
        <time>2024-09-21T13:35:34Z</time>
      </trkpt>
      <trkpt lat="45.04128" lon="2.47581">
        <ele>902.82</ele>
        <time>2024-09-21T13:35:44Z</time>
      </trkpt>
      <trkpt lat="45.0411" lon="2.47589">
        <ele>899.93</ele>
        <time>2024-09-21T13:36:01Z</time>
      </trkpt>
      <trkpt lat="45.04092" lon="2.47597">
        <ele>897.53</ele>
        <time>2024-09-21T13:36:16Z</time>
      </trkpt>
      <trkpt lat="45.04068" lon="2.476">
        <ele>896.57</ele>
        <time>2024-09-21T13:36:36Z</time>
      </trkpt>
      <trkpt lat="45.04048" lon="2.476">
        <ele>895.61</ele>
        <time>2024-09-21T13:36:54Z</time>
      </trkpt>
      <trkpt lat="45.04037" lon="2.47598">
        <ele>895.12</ele>
        <time>2024-09-21T13:37:05Z</time>
      </trkpt>
      <trkpt lat="45.04034" lon="2.47596">
        <ele>894.64</ele>
        <time>2024-09-21T13:37:07Z</time>
      </trkpt>
      <trkpt lat="45.04032" lon="2.47596">
        <ele>894.64</ele>
        <time>2024-09-21T13:37:09Z</time>
      </trkpt>
      <trkpt lat="45.04023" lon="2.47596">
        <ele>893.68</ele>
        <time>2024-09-21T13:37:16Z</time>
      </trkpt>
      <trkpt lat="45.04008" lon="2.47596">
        <ele>895.12</ele>
        <time>2024-09-21T13:37:29Z</time>
      </trkpt>
      <trkpt lat="45.03997" lon="2.47596">
        <ele>896.57</ele>
        <time>2024-09-21T13:37:44Z</time>
      </trkpt>
      <trkpt lat="45.03995" lon="2.47596">
        <ele>896.57</ele>
        <time>2024-09-21T13:37:46Z</time>
      </trkpt>
      <trkpt lat="45.03991" lon="2.47594">
        <ele>897.53</ele>
        <time>2024-09-21T13:37:49Z</time>
      </trkpt>
      <trkpt lat="45.03973" lon="2.47594">
        <ele>898.49</ele>
        <time>2024-09-21T13:38:05Z</time>
      </trkpt>
      <trkpt lat="45.03961" lon="2.47593">
        <ele>898.97</ele>
        <time>2024-09-21T13:38:16Z</time>
      </trkpt>
      <trkpt lat="45.03958" lon="2.47593">
        <ele>899.45</ele>
        <time>2024-09-21T13:38:19Z</time>
      </trkpt>
      <trkpt lat="45.03939" lon="2.47591">
        <ele>900.89</ele>
        <time>2024-09-21T13:38:36Z</time>
      </trkpt>
      <trkpt lat="45.03928" lon="2.4759">
        <ele>902.33</ele>
        <time>2024-09-21T13:38:49Z</time>
      </trkpt>
      <trkpt lat="45.03927" lon="2.4759">
        <ele>903.3</ele>
        <time>2024-09-21T13:39:02Z</time>
      </trkpt>
      <trkpt lat="45.03921" lon="2.47588">
        <ele>906.66</ele>
        <time>2024-09-21T13:39:12Z</time>
      </trkpt>
      <trkpt lat="45.03921" lon="2.47591">
        <ele>910.03</ele>
        <time>2024-09-21T13:39:27Z</time>
      </trkpt>
      <trkpt lat="45.03921" lon="2.47594">
        <ele>912.91</ele>
        <time>2024-09-21T13:39:46Z</time>
      </trkpt>
      <trkpt lat="45.03921" lon="2.47593">
        <ele>912.91</ele>
        <time>2024-09-21T13:40:04Z</time>
      </trkpt>
      <trkpt lat="45.03921" lon="2.47597">
        <ele>914.83</ele>
        <time>2024-09-21T13:40:28Z</time>
      </trkpt>
      <trkpt lat="45.03923" lon="2.47597">
        <ele>914.35</ele>
        <time>2024-09-21T13:40:49Z</time>
      </trkpt>
      <trkpt lat="45.03924" lon="2.47596">
        <ele>912.91</ele>
        <time>2024-09-21T13:41:25Z</time>
      </trkpt>
      <trkpt lat="45.03923" lon="2.47603">
        <ele>912.91</ele>
        <time>2024-09-21T13:41:36Z</time>
      </trkpt>
      <trkpt lat="45.0393" lon="2.4763">
        <ele>911.47</ele>
        <time>2024-09-21T13:41:57Z</time>
      </trkpt>
      <trkpt lat="45.03932" lon="2.47639">
        <ele>910.03</ele>
        <time>2024-09-21T13:42:21Z</time>
      </trkpt>
      <trkpt lat="45.03933" lon="2.47641">
        <ele>910.03</ele>
        <time>2024-09-21T13:42:23Z</time>
      </trkpt>
      <trkpt lat="45.03939" lon="2.47676">
        <ele>913.39</ele>
        <time>2024-09-21T13:42:47Z</time>
      </trkpt>
      <trkpt lat="45.03944" lon="2.47703">
        <ele>916.75</ele>
        <time>2024-09-21T13:43:05Z</time>
      </trkpt>
      <trkpt lat="45.03945" lon="2.47739">
        <ele>918.2</ele>
        <time>2024-09-21T13:43:29Z</time>
      </trkpt>
      <trkpt lat="45.0394" lon="2.47767">
        <ele>919.64</ele>
        <time>2024-09-21T13:43:50Z</time>
      </trkpt>
      <trkpt lat="45.03933" lon="2.47799">
        <ele>920.6</ele>
        <time>2024-09-21T13:44:12Z</time>
      </trkpt>
      <trkpt lat="45.03923" lon="2.47838">
        <ele>919.16</ele>
        <time>2024-09-21T13:44:38Z</time>
      </trkpt>
      <trkpt lat="45.03921" lon="2.47874">
        <ele>916.27</ele>
        <time>2024-09-21T13:45:02Z</time>
      </trkpt>
      <trkpt lat="45.03922" lon="2.47909">
        <ele>910.51</ele>
        <time>2024-09-21T13:45:28Z</time>
      </trkpt>
      <trkpt lat="45.03922" lon="2.47948">
        <ele>905.22</ele>
        <time>2024-09-21T13:45:53Z</time>
      </trkpt>
      <trkpt lat="45.03915" lon="2.47987">
        <ele>902.82</ele>
        <time>2024-09-21T13:46:16Z</time>
      </trkpt>
      <trkpt lat="45.03908" lon="2.48012">
        <ele>897.53</ele>
        <time>2024-09-21T13:46:39Z</time>
      </trkpt>
      <trkpt lat="45.03905" lon="2.4804">
        <ele>896.09</ele>
        <time>2024-09-21T13:47:02Z</time>
      </trkpt>
      <trkpt lat="45.03896" lon="2.48062">
        <ele>912.91</ele>
        <time>2024-09-21T13:47:21Z</time>
      </trkpt>
      <trkpt lat="45.039" lon="2.48084">
        <ele>913.87</ele>
        <time>2024-09-21T13:47:39Z</time>
      </trkpt>
      <trkpt lat="45.03904" lon="2.48095">
        <ele>910.99</ele>
        <time>2024-09-21T13:47:52Z</time>
      </trkpt>
      <trkpt lat="45.03908" lon="2.48116">
        <ele>912.43</ele>
        <time>2024-09-21T13:48:07Z</time>
      </trkpt>
      <trkpt lat="45.03914" lon="2.48131">
        <ele>913.39</ele>
        <time>2024-09-21T13:48:22Z</time>
      </trkpt>
      <trkpt lat="45.03923" lon="2.48151">
        <ele>914.35</ele>
        <time>2024-09-21T13:48:40Z</time>
      </trkpt>
      <trkpt lat="45.03927" lon="2.48167">
        <ele>917.24</ele>
        <time>2024-09-21T13:48:56Z</time>
      </trkpt>
      <trkpt lat="45.03932" lon="2.48188">
        <ele>920.6</ele>
        <time>2024-09-21T13:49:12Z</time>
      </trkpt>
      <trkpt lat="45.03943" lon="2.48209">
        <ele>921.56</ele>
        <time>2024-09-21T13:49:30Z</time>
      </trkpt>
      <trkpt lat="45.03947" lon="2.48232">
        <ele>923</ele>
        <time>2024-09-21T13:49:45Z</time>
      </trkpt>
      <trkpt lat="45.03951" lon="2.4826">
        <ele>923</ele>
        <time>2024-09-21T13:50:03Z</time>
      </trkpt>
      <trkpt lat="45.03962" lon="2.48283">
        <ele>923.96</ele>
        <time>2024-09-21T13:50:21Z</time>
      </trkpt>
      <trkpt lat="45.03973" lon="2.48297">
        <ele>924.45</ele>
        <time>2024-09-21T13:50:35Z</time>
      </trkpt>
      <trkpt lat="45.03985" lon="2.48307">
        <ele>924.93</ele>
        <time>2024-09-21T13:50:49Z</time>
      </trkpt>
      <trkpt lat="45.04001" lon="2.48319">
        <ele>924.93</ele>
        <time>2024-09-21T13:51:09Z</time>
      </trkpt>
      <trkpt lat="45.04013" lon="2.48328">
        <ele>925.89</ele>
        <time>2024-09-21T13:51:23Z</time>
      </trkpt>
      <trkpt lat="45.04025" lon="2.48335">
        <ele>926.37</ele>
        <time>2024-09-21T13:51:38Z</time>
      </trkpt>
      <trkpt lat="45.0404" lon="2.48344">
        <ele>927.81</ele>
        <time>2024-09-21T13:51:53Z</time>
      </trkpt>
      <trkpt lat="45.04055" lon="2.48356">
        <ele>929.25</ele>
        <time>2024-09-21T13:52:09Z</time>
      </trkpt>
      <trkpt lat="45.04064" lon="2.48369">
        <ele>930.69</ele>
        <time>2024-09-21T13:52:20Z</time>
      </trkpt>
      <trkpt lat="45.0408" lon="2.48384">
        <ele>931.65</ele>
        <time>2024-09-21T13:52:38Z</time>
      </trkpt>
      <trkpt lat="45.04081" lon="2.48385">
        <ele>931.65</ele>
        <time>2024-09-21T13:52:39Z</time>
      </trkpt>
      <trkpt lat="45.04099" lon="2.48393">
        <ele>929.73</ele>
        <time>2024-09-21T13:52:58Z</time>
      </trkpt>
      <trkpt lat="45.04114" lon="2.48411">
        <ele>929.25</ele>
        <time>2024-09-21T13:53:14Z</time>
      </trkpt>
      <trkpt lat="45.04125" lon="2.48432">
        <ele>929.25</ele>
        <time>2024-09-21T13:53:32Z</time>
      </trkpt>
      <trkpt lat="45.04133" lon="2.48455">
        <ele>930.21</ele>
        <time>2024-09-21T13:53:50Z</time>
      </trkpt>
      <trkpt lat="45.0414" lon="2.48477">
        <ele>930.69</ele>
        <time>2024-09-21T13:54:06Z</time>
      </trkpt>
      <trkpt lat="45.04146" lon="2.48504">
        <ele>929.25</ele>
        <time>2024-09-21T13:54:25Z</time>
      </trkpt>
      <trkpt lat="45.04147" lon="2.48505">
        <ele>928.77</ele>
        <time>2024-09-21T13:54:26Z</time>
      </trkpt>
      <trkpt lat="45.04148" lon="2.48529">
        <ele>928.77</ele>
        <time>2024-09-21T13:54:41Z</time>
      </trkpt>
      <trkpt lat="45.04149" lon="2.48532">
        <ele>928.77</ele>
        <time>2024-09-21T13:54:43Z</time>
      </trkpt>
      <trkpt lat="45.04148" lon="2.4856">
        <ele>930.21</ele>
        <time>2024-09-21T13:55:00Z</time>
      </trkpt>
      <trkpt lat="45.04147" lon="2.48585">
        <ele>930.21</ele>
        <time>2024-09-21T13:55:17Z</time>
      </trkpt>
      <trkpt lat="45.04146" lon="2.48606">
        <ele>929.73</ele>
        <time>2024-09-21T13:55:32Z</time>
      </trkpt>
      <trkpt lat="45.04142" lon="2.48628">
        <ele>932.62</ele>
        <time>2024-09-21T13:55:46Z</time>
      </trkpt>
      <trkpt lat="45.04136" lon="2.48651">
        <ele>935.02</ele>
        <time>2024-09-21T13:56:02Z</time>
      </trkpt>
      <trkpt lat="45.04131" lon="2.48675">
        <ele>934.06</ele>
        <time>2024-09-21T13:56:19Z</time>
      </trkpt>
      <trkpt lat="45.04128" lon="2.48693">
        <ele>934.54</ele>
        <time>2024-09-21T13:56:32Z</time>
      </trkpt>
      <trkpt lat="45.04127" lon="2.48712">
        <ele>934.54</ele>
        <time>2024-09-21T13:56:45Z</time>
      </trkpt>
      <trkpt lat="45.04125" lon="2.48737">
        <ele>934.06</ele>
        <time>2024-09-21T13:57:02Z</time>
      </trkpt>
      <trkpt lat="45.04123" lon="2.4875">
        <ele>934.06</ele>
        <time>2024-09-21T13:57:10Z</time>
      </trkpt>
      <trkpt lat="45.04119" lon="2.48774">
        <ele>934.06</ele>
        <time>2024-09-21T13:57:25Z</time>
      </trkpt>
      <trkpt lat="45.04114" lon="2.48801">
        <ele>933.58</ele>
        <time>2024-09-21T13:57:43Z</time>
      </trkpt>
      <trkpt lat="45.04109" lon="2.48828">
        <ele>932.14</ele>
        <time>2024-09-21T13:58:00Z</time>
      </trkpt>
      <trkpt lat="45.04108" lon="2.48857">
        <ele>933.58</ele>
        <time>2024-09-21T13:58:17Z</time>
      </trkpt>
      <trkpt lat="45.04107" lon="2.4888">
        <ele>933.1</ele>
        <time>2024-09-21T13:58:32Z</time>
      </trkpt>
      <trkpt lat="45.04106" lon="2.48898">
        <ele>932.62</ele>
        <time>2024-09-21T13:58:44Z</time>
      </trkpt>
      <trkpt lat="45.04105" lon="2.48924">
        <ele>931.65</ele>
        <time>2024-09-21T13:59:00Z</time>
      </trkpt>
      <trkpt lat="45.04107" lon="2.48951">
        <ele>931.17</ele>
        <time>2024-09-21T13:59:17Z</time>
      </trkpt>
      <trkpt lat="45.0411" lon="2.48973">
        <ele>930.69</ele>
        <time>2024-09-21T13:59:31Z</time>
      </trkpt>
      <trkpt lat="45.04112" lon="2.48997">
        <ele>930.69</ele>
        <time>2024-09-21T13:59:47Z</time>
      </trkpt>
      <trkpt lat="45.04113" lon="2.49007">
        <ele>930.21</ele>
        <time>2024-09-21T13:59:59Z</time>
      </trkpt>
      <trkpt lat="45.04114" lon="2.4902">
        <ele>930.21</ele>
        <time>2024-09-21T14:00:11Z</time>
      </trkpt>
      <trkpt lat="45.04116" lon="2.49032">
        <ele>930.69</ele>
        <time>2024-09-21T14:00:24Z</time>
      </trkpt>
      <trkpt lat="45.04119" lon="2.49054">
        <ele>930.21</ele>
        <time>2024-09-21T14:00:38Z</time>
      </trkpt>
      <trkpt lat="45.04123" lon="2.49081">
        <ele>929.73</ele>
        <time>2024-09-21T14:00:55Z</time>
      </trkpt>
      <trkpt lat="45.04127" lon="2.49106">
        <ele>930.69</ele>
        <time>2024-09-21T14:01:10Z</time>
      </trkpt>
      <trkpt lat="45.04131" lon="2.49129">
        <ele>932.14</ele>
        <time>2024-09-21T14:01:26Z</time>
      </trkpt>
      <trkpt lat="45.04133" lon="2.49153">
        <ele>932.14</ele>
        <time>2024-09-21T14:01:42Z</time>
      </trkpt>
      <trkpt lat="45.04136" lon="2.49163">
        <ele>932.62</ele>
        <time>2024-09-21T14:01:49Z</time>
      </trkpt>
      <trkpt lat="45.04139" lon="2.49188">
        <ele>933.58</ele>
        <time>2024-09-21T14:02:07Z</time>
      </trkpt>
      <trkpt lat="45.04142" lon="2.4921">
        <ele>934.54</ele>
        <time>2024-09-21T14:02:23Z</time>
      </trkpt>
      <trkpt lat="45.04142" lon="2.49232">
        <ele>935.98</ele>
        <time>2024-09-21T14:02:39Z</time>
      </trkpt>
      <trkpt lat="45.04144" lon="2.49253">
        <ele>938.38</ele>
        <time>2024-09-21T14:02:53Z</time>
      </trkpt>
      <trkpt lat="45.04144" lon="2.49273">
        <ele>939.35</ele>
        <time>2024-09-21T14:03:07Z</time>
      </trkpt>
      <trkpt lat="45.04145" lon="2.49296">
        <ele>940.79</ele>
        <time>2024-09-21T14:03:23Z</time>
      </trkpt>
      <trkpt lat="45.04144" lon="2.49319">
        <ele>942.23</ele>
        <time>2024-09-21T14:03:39Z</time>
      </trkpt>
      <trkpt lat="45.04143" lon="2.49342">
        <ele>943.19</ele>
        <time>2024-09-21T14:03:55Z</time>
      </trkpt>
      <trkpt lat="45.04141" lon="2.49363">
        <ele>944.15</ele>
        <time>2024-09-21T14:04:10Z</time>
      </trkpt>
      <trkpt lat="45.04141" lon="2.49366">
        <ele>944.15</ele>
        <time>2024-09-21T14:04:13Z</time>
      </trkpt>
      <trkpt lat="45.0414" lon="2.49373">
        <ele>944.63</ele>
        <time>2024-09-21T14:04:17Z</time>
      </trkpt>
      <trkpt lat="45.04136" lon="2.49397">
        <ele>945.11</ele>
        <time>2024-09-21T14:04:33Z</time>
      </trkpt>
      <trkpt lat="45.04132" lon="2.49417">
        <ele>946.56</ele>
        <time>2024-09-21T14:04:47Z</time>
      </trkpt>
      <trkpt lat="45.04129" lon="2.4944">
        <ele>947.52</ele>
        <time>2024-09-21T14:05:02Z</time>
      </trkpt>
      <trkpt lat="45.04127" lon="2.49459">
        <ele>948</ele>
        <time>2024-09-21T14:05:16Z</time>
      </trkpt>
      <trkpt lat="45.04125" lon="2.4948">
        <ele>948.96</ele>
        <time>2024-09-21T14:05:31Z</time>
      </trkpt>
      <trkpt lat="45.04123" lon="2.49501">
        <ele>950.88</ele>
        <time>2024-09-21T14:05:45Z</time>
      </trkpt>
      <trkpt lat="45.04121" lon="2.4952">
        <ele>952.32</ele>
        <time>2024-09-21T14:05:59Z</time>
      </trkpt>
      <trkpt lat="45.0412" lon="2.4954">
        <ele>950.88</ele>
        <time>2024-09-21T14:06:13Z</time>
      </trkpt>
      <trkpt lat="45.0412" lon="2.49545">
        <ele>950.4</ele>
        <time>2024-09-21T14:06:16Z</time>
      </trkpt>
      <trkpt lat="45.0412" lon="2.49547">
        <ele>950.4</ele>
        <time>2024-09-21T14:06:18Z</time>
      </trkpt>
      <trkpt lat="45.04119" lon="2.49571">
        <ele>950.4</ele>
        <time>2024-09-21T14:06:34Z</time>
      </trkpt>
      <trkpt lat="45.04117" lon="2.49589">
        <ele>950.88</ele>
        <time>2024-09-21T14:06:47Z</time>
      </trkpt>
      <trkpt lat="45.04113" lon="2.4961">
        <ele>952.8</ele>
        <time>2024-09-21T14:07:02Z</time>
      </trkpt>
      <trkpt lat="45.04108" lon="2.49629">
        <ele>952.32</ele>
        <time>2024-09-21T14:07:16Z</time>
      </trkpt>
      <trkpt lat="45.04103" lon="2.49645">
        <ele>952.8</ele>
        <time>2024-09-21T14:07:29Z</time>
      </trkpt>
      <trkpt lat="45.04101" lon="2.49658">
        <ele>955.69</ele>
        <time>2024-09-21T14:07:37Z</time>
      </trkpt>
      <trkpt lat="45.04096" lon="2.49683">
        <ele>959.05</ele>
        <time>2024-09-21T14:07:52Z</time>
      </trkpt>
      <trkpt lat="45.04089" lon="2.49698">
        <ele>957.13</ele>
        <time>2024-09-21T14:08:06Z</time>
      </trkpt>
      <trkpt lat="45.04081" lon="2.49711">
        <ele>957.61</ele>
        <time>2024-09-21T14:08:21Z</time>
      </trkpt>
      <trkpt lat="45.04074" lon="2.49727">
        <ele>956.17</ele>
        <time>2024-09-21T14:08:37Z</time>
      </trkpt>
      <trkpt lat="45.04065" lon="2.49744">
        <ele>955.21</ele>
        <time>2024-09-21T14:08:52Z</time>
      </trkpt>
      <trkpt lat="45.04057" lon="2.49759">
        <ele>956.17</ele>
        <time>2024-09-21T14:09:07Z</time>
      </trkpt>
      <trkpt lat="45.04055" lon="2.49761">
        <ele>956.17</ele>
        <time>2024-09-21T14:09:21Z</time>
      </trkpt>
      <trkpt lat="45.04053" lon="2.49759">
        <ele>956.17</ele>
        <time>2024-09-21T14:09:51Z</time>
      </trkpt>
      <trkpt lat="45.04055" lon="2.4976">
        <ele>957.13</ele>
        <time>2024-09-21T14:10:13Z</time>
      </trkpt>
      <trkpt lat="45.04053" lon="2.49758">
        <ele>958.09</ele>
        <time>2024-09-21T14:10:29Z</time>
      </trkpt>
      <trkpt lat="45.04053" lon="2.49759">
        <ele>958.09</ele>
        <time>2024-09-21T14:10:39Z</time>
      </trkpt>
      <trkpt lat="45.04049" lon="2.49757">
        <ele>957.61</ele>
        <time>2024-09-21T14:10:52Z</time>
      </trkpt>
      <trkpt lat="45.04047" lon="2.49758">
        <ele>958.09</ele>
        <time>2024-09-21T14:11:08Z</time>
      </trkpt>
      <trkpt lat="45.04047" lon="2.4976">
        <ele>958.09</ele>
        <time>2024-09-21T14:11:30Z</time>
      </trkpt>
      <trkpt lat="45.04049" lon="2.49771">
        <ele>960.49</ele>
        <time>2024-09-21T14:11:45Z</time>
      </trkpt>
      <trkpt lat="45.04042" lon="2.49786">
        <ele>964.34</ele>
        <time>2024-09-21T14:12:00Z</time>
      </trkpt>
      <trkpt lat="45.04033" lon="2.49795">
        <ele>964.34</ele>
        <time>2024-09-21T14:12:14Z</time>
      </trkpt>
      <trkpt lat="45.04018" lon="2.49805">
        <ele>965.78</ele>
        <time>2024-09-21T14:12:30Z</time>
      </trkpt>
      <trkpt lat="45.04017" lon="2.49806">
        <ele>965.78</ele>
        <time>2024-09-21T14:12:31Z</time>
      </trkpt>
      <trkpt lat="45.04012" lon="2.49812">
        <ele>967.22</ele>
        <time>2024-09-21T14:12:38Z</time>
      </trkpt>
      <trkpt lat="45.04002" lon="2.49825">
        <ele>970.59</ele>
        <time>2024-09-21T14:12:53Z</time>
      </trkpt>
      <trkpt lat="45.03991" lon="2.49837">
        <ele>971.55</ele>
        <time>2024-09-21T14:13:07Z</time>
      </trkpt>
      <trkpt lat="45.03981" lon="2.49848">
        <ele>972.51</ele>
        <time>2024-09-21T14:13:21Z</time>
      </trkpt>
      <trkpt lat="45.03969" lon="2.4986">
        <ele>973.47</ele>
        <time>2024-09-21T14:13:36Z</time>
      </trkpt>
      <trkpt lat="45.03959" lon="2.4987">
        <ele>973.95</ele>
        <time>2024-09-21T14:13:49Z</time>
      </trkpt>
      <trkpt lat="45.03959" lon="2.49875">
        <ele>973.95</ele>
        <time>2024-09-21T14:14:03Z</time>
      </trkpt>
      <trkpt lat="45.03964" lon="2.49887">
        <ele>972.99</ele>
        <time>2024-09-21T14:14:18Z</time>
      </trkpt>
      <trkpt lat="45.03968" lon="2.49901">
        <ele>972.99</ele>
        <time>2024-09-21T14:14:32Z</time>
      </trkpt>
      <trkpt lat="45.03973" lon="2.49914">
        <ele>972.51</ele>
        <time>2024-09-21T14:14:46Z</time>
      </trkpt>
      <trkpt lat="45.03977" lon="2.49929">
        <ele>973.47</ele>
        <time>2024-09-21T14:15:01Z</time>
      </trkpt>
      <trkpt lat="45.03982" lon="2.49944">
        <ele>974.43</ele>
        <time>2024-09-21T14:15:17Z</time>
      </trkpt>
      <trkpt lat="45.03984" lon="2.49957">
        <ele>975.39</ele>
        <time>2024-09-21T14:15:29Z</time>
      </trkpt>
      <trkpt lat="45.03986" lon="2.49972">
        <ele>975.88</ele>
        <time>2024-09-21T14:15:43Z</time>
      </trkpt>
      <trkpt lat="45.03988" lon="2.49987">
        <ele>976.36</ele>
        <time>2024-09-21T14:15:57Z</time>
      </trkpt>
      <trkpt lat="45.03988" lon="2.50001">
        <ele>977.32</ele>
        <time>2024-09-21T14:16:10Z</time>
      </trkpt>
      <trkpt lat="45.03989" lon="2.50016">
        <ele>979.24</ele>
        <time>2024-09-21T14:16:24Z</time>
      </trkpt>
      <trkpt lat="45.03991" lon="2.50031">
        <ele>980.68</ele>
        <time>2024-09-21T14:16:37Z</time>
      </trkpt>
      <trkpt lat="45.03995" lon="2.50044">
        <ele>982.12</ele>
        <time>2024-09-21T14:16:51Z</time>
      </trkpt>
      <trkpt lat="45.03998" lon="2.5006">
        <ele>983.09</ele>
        <time>2024-09-21T14:17:05Z</time>
      </trkpt>
      <trkpt lat="45.03998" lon="2.50062">
        <ele>983.09</ele>
        <time>2024-09-21T14:17:07Z</time>
      </trkpt>
      <trkpt lat="45.04" lon="2.50077">
        <ele>984.53</ele>
        <time>2024-09-21T14:17:20Z</time>
      </trkpt>
      <trkpt lat="45.04004" lon="2.50091">
        <ele>985.97</ele>
        <time>2024-09-21T14:17:33Z</time>
      </trkpt>
      <trkpt lat="45.04009" lon="2.50107">
        <ele>987.89</ele>
        <time>2024-09-21T14:17:47Z</time>
      </trkpt>
      <trkpt lat="45.04013" lon="2.50124">
        <ele>989.81</ele>
        <time>2024-09-21T14:18:04Z</time>
      </trkpt>
      <trkpt lat="45.04015" lon="2.50133">
        <ele>990.78</ele>
        <time>2024-09-21T14:18:18Z</time>
      </trkpt>
      <trkpt lat="45.04016" lon="2.50146">
        <ele>991.74</ele>
        <time>2024-09-21T14:18:30Z</time>
      </trkpt>
      <trkpt lat="45.04017" lon="2.5016">
        <ele>992.7</ele>
        <time>2024-09-21T14:18:45Z</time>
      </trkpt>
      <trkpt lat="45.04017" lon="2.50162">
        <ele>993.18</ele>
        <time>2024-09-21T14:18:56Z</time>
      </trkpt>
      <trkpt lat="45.04018" lon="2.50161">
        <ele>995.1</ele>
        <time>2024-09-21T14:19:20Z</time>
      </trkpt>
      <trkpt lat="45.0402" lon="2.50165">
        <ele>995.1</ele>
        <time>2024-09-21T14:19:40Z</time>
      </trkpt>
      <trkpt lat="45.04018" lon="2.50167">
        <ele>994.14</ele>
        <time>2024-09-21T14:19:56Z</time>
      </trkpt>
      <trkpt lat="45.04019" lon="2.50174">
        <ele>994.62</ele>
        <time>2024-09-21T14:20:12Z</time>
      </trkpt>
      <trkpt lat="45.04022" lon="2.5018">
        <ele>995.1</ele>
        <time>2024-09-21T14:20:37Z</time>
      </trkpt>
      <trkpt lat="45.04024" lon="2.50187">
        <ele>994.14</ele>
        <time>2024-09-21T14:20:51Z</time>
      </trkpt>
      <trkpt lat="45.04024" lon="2.50191">
        <ele>994.14</ele>
        <time>2024-09-21T14:20:54Z</time>
      </trkpt>
      <trkpt lat="45.04025" lon="2.50194">
        <ele>994.14</ele>
        <time>2024-09-21T14:20:56Z</time>
      </trkpt>
      <trkpt lat="45.04027" lon="2.50217">
        <ele>994.14</ele>
        <time>2024-09-21T14:21:13Z</time>
      </trkpt>
      <trkpt lat="45.04027" lon="2.50231">
        <ele>994.14</ele>
        <time>2024-09-21T14:21:24Z</time>
      </trkpt>
      <trkpt lat="45.04032" lon="2.50257">
        <ele>993.18</ele>
        <time>2024-09-21T14:21:41Z</time>
      </trkpt>
      <trkpt lat="45.04036" lon="2.50276">
        <ele>992.7</ele>
        <time>2024-09-21T14:21:55Z</time>
      </trkpt>
      <trkpt lat="45.0404" lon="2.50298">
        <ele>991.74</ele>
        <time>2024-09-21T14:22:11Z</time>
      </trkpt>
      <trkpt lat="45.04044" lon="2.50315">
        <ele>990.78</ele>
        <time>2024-09-21T14:22:24Z</time>
      </trkpt>
      <trkpt lat="45.04047" lon="2.50321">
        <ele>990.3</ele>
        <time>2024-09-21T14:22:29Z</time>
      </trkpt>
      <trkpt lat="45.04053" lon="2.50343">
        <ele>988.85</ele>
        <time>2024-09-21T14:22:46Z</time>
      </trkpt>
      <trkpt lat="45.04057" lon="2.50364">
        <ele>987.89</ele>
        <time>2024-09-21T14:23:02Z</time>
      </trkpt>
      <trkpt lat="45.04061" lon="2.50377">
        <ele>985.97</ele>
        <time>2024-09-21T14:23:16Z</time>
      </trkpt>
      <trkpt lat="45.04064" lon="2.50385">
        <ele>985.01</ele>
        <time>2024-09-21T14:23:23Z</time>
      </trkpt>
      <trkpt lat="45.04068" lon="2.50405">
        <ele>983.57</ele>
        <time>2024-09-21T14:23:39Z</time>
      </trkpt>
      <trkpt lat="45.04072" lon="2.50424">
        <ele>981.64</ele>
        <time>2024-09-21T14:23:54Z</time>
      </trkpt>
      <trkpt lat="45.04074" lon="2.50438">
        <ele>980.2</ele>
        <time>2024-09-21T14:24:04Z</time>
      </trkpt>
      <trkpt lat="45.04079" lon="2.50456">
        <ele>978.28</ele>
        <time>2024-09-21T14:24:19Z</time>
      </trkpt>
      <trkpt lat="45.04081" lon="2.50462">
        <ele>977.8</ele>
        <time>2024-09-21T14:24:24Z</time>
      </trkpt>
      <trkpt lat="45.04083" lon="2.5047">
        <ele>976.84</ele>
        <time>2024-09-21T14:24:30Z</time>
      </trkpt>
      <trkpt lat="45.04089" lon="2.50492">
        <ele>975.39</ele>
        <time>2024-09-21T14:24:48Z</time>
      </trkpt>
      <trkpt lat="45.04092" lon="2.50506">
        <ele>975.39</ele>
        <time>2024-09-21T14:25:02Z</time>
      </trkpt>
      <trkpt lat="45.04091" lon="2.50508">
        <ele>977.32</ele>
        <time>2024-09-21T14:25:19Z</time>
      </trkpt>
      <trkpt lat="45.0409" lon="2.5051">
        <ele>979.24</ele>
        <time>2024-09-21T14:25:38Z</time>
      </trkpt>
      <trkpt lat="45.04088" lon="2.50511">
        <ele>979.72</ele>
        <time>2024-09-21T14:26:04Z</time>
      </trkpt>
      <trkpt lat="45.04089" lon="2.50512">
        <ele>980.68</ele>
        <time>2024-09-21T14:26:17Z</time>
      </trkpt>
      <trkpt lat="45.0409" lon="2.50512">
        <ele>980.68</ele>
        <time>2024-09-21T14:26:38Z</time>
      </trkpt>
      <trkpt lat="45.04095" lon="2.50523">
        <ele>980.2</ele>
        <time>2024-09-21T14:26:51Z</time>
      </trkpt>
      <trkpt lat="45.04098" lon="2.50542">
        <ele>978.76</ele>
        <time>2024-09-21T14:27:06Z</time>
      </trkpt>
      <trkpt lat="45.04102" lon="2.50561">
        <ele>977.8</ele>
        <time>2024-09-21T14:27:22Z</time>
      </trkpt>
      <trkpt lat="45.04112" lon="2.5058">
        <ele>975.39</ele>
        <time>2024-09-21T14:27:38Z</time>
      </trkpt>
      <trkpt lat="45.04117" lon="2.50592">
        <ele>974.91</ele>
        <time>2024-09-21T14:27:52Z</time>
      </trkpt>
      <trkpt lat="45.04113" lon="2.50606">
        <ele>973.47</ele>
        <time>2024-09-21T14:28:06Z</time>
      </trkpt>
      <trkpt lat="45.04114" lon="2.50607">
        <ele>971.07</ele>
        <time>2024-09-21T14:28:10Z</time>
      </trkpt>
      <trkpt lat="45.04118" lon="2.50612">
        <ele>967.22</ele>
        <time>2024-09-21T14:28:21Z</time>
      </trkpt>
      <trkpt lat="45.04129" lon="2.50622">
        <ele>967.22</ele>
        <time>2024-09-21T14:28:37Z</time>
      </trkpt>
      <trkpt lat="45.04135" lon="2.50624">
        <ele>966.26</ele>
        <time>2024-09-21T14:28:51Z</time>
      </trkpt>
      <trkpt lat="45.04138" lon="2.50627">
        <ele>965.78</ele>
        <time>2024-09-21T14:29:06Z</time>
      </trkpt>
      <trkpt lat="45.04145" lon="2.50635">
        <ele>964.82</ele>
        <time>2024-09-21T14:29:16Z</time>
      </trkpt>
      <trkpt lat="45.04151" lon="2.50646">
        <ele>965.78</ele>
        <time>2024-09-21T14:29:30Z</time>
      </trkpt>
      <trkpt lat="45.0416" lon="2.5066">
        <ele>964.82</ele>
        <time>2024-09-21T14:29:46Z</time>
      </trkpt>
      <trkpt lat="45.04166" lon="2.50675">
        <ele>965.78</ele>
        <time>2024-09-21T14:30:00Z</time>
      </trkpt>
      <trkpt lat="45.04169" lon="2.50675">
        <ele>964.34</ele>
        <time>2024-09-21T14:30:14Z</time>
      </trkpt>
      <trkpt lat="45.04173" lon="2.50683">
        <ele>965.3</ele>
        <time>2024-09-21T14:30:27Z</time>
      </trkpt>
      <trkpt lat="45.04173" lon="2.50683">
        <ele>965.78</ele>
        <time>2024-09-21T14:30:47Z</time>
      </trkpt>
      <trkpt lat="45.04175" lon="2.50689">
        <ele>966.26</ele>
        <time>2024-09-21T14:30:51Z</time>
      </trkpt>
      <trkpt lat="45.04191" lon="2.50709">
        <ele>964.34</ele>
        <time>2024-09-21T14:31:08Z</time>
      </trkpt>
      <trkpt lat="45.04208" lon="2.5073">
        <ele>963.86</ele>
        <time>2024-09-21T14:31:25Z</time>
      </trkpt>
      <trkpt lat="45.04224" lon="2.50748">
        <ele>962.9</ele>
        <time>2024-09-21T14:31:42Z</time>
      </trkpt>
      <trkpt lat="45.04241" lon="2.50766">
        <ele>960.98</ele>
        <time>2024-09-21T14:31:59Z</time>
      </trkpt>
      <trkpt lat="45.04257" lon="2.50784">
        <ele>960.01</ele>
        <time>2024-09-21T14:32:16Z</time>
      </trkpt>
      <trkpt lat="45.04265" lon="2.50792">
        <ele>960.49</ele>
        <time>2024-09-21T14:32:24Z</time>
      </trkpt>
      <trkpt lat="45.04278" lon="2.50807">
        <ele>960.49</ele>
        <time>2024-09-21T14:32:39Z</time>
      </trkpt>
      <trkpt lat="45.04283" lon="2.50812">
        <ele>960.49</ele>
        <time>2024-09-21T14:32:45Z</time>
      </trkpt>
      <trkpt lat="45.04296" lon="2.50823">
        <ele>961.94</ele>
        <time>2024-09-21T14:32:59Z</time>
      </trkpt>
      <trkpt lat="45.0431" lon="2.50837">
        <ele>961.46</ele>
        <time>2024-09-21T14:33:14Z</time>
      </trkpt>
      <trkpt lat="45.04324" lon="2.5085">
        <ele>962.42</ele>
        <time>2024-09-21T14:33:29Z</time>
      </trkpt>
      <trkpt lat="45.04336" lon="2.50859">
        <ele>958.57</ele>
        <time>2024-09-21T14:33:43Z</time>
      </trkpt>
      <trkpt lat="45.0435" lon="2.50867">
        <ele>959.53</ele>
        <time>2024-09-21T14:33:57Z</time>
      </trkpt>
      <trkpt lat="45.04362" lon="2.50874">
        <ele>960.49</ele>
        <time>2024-09-21T14:34:08Z</time>
      </trkpt>
      <trkpt lat="45.04367" lon="2.50876">
        <ele>961.94</ele>
        <time>2024-09-21T14:34:17Z</time>
      </trkpt>
      <trkpt lat="45.04375" lon="2.50871">
        <ele>962.9</ele>
        <time>2024-09-21T14:34:25Z</time>
      </trkpt>
      <trkpt lat="45.04387" lon="2.50856">
        <ele>963.86</ele>
        <time>2024-09-21T14:34:40Z</time>
      </trkpt>
      <trkpt lat="45.04396" lon="2.50843">
        <ele>964.82</ele>
        <time>2024-09-21T14:34:54Z</time>
      </trkpt>
      <trkpt lat="45.04401" lon="2.50838">
        <ele>966.74</ele>
        <time>2024-09-21T14:35:08Z</time>
      </trkpt>
      <trkpt lat="45.04406" lon="2.50837">
        <ele>967.22</ele>
        <time>2024-09-21T14:35:20Z</time>
      </trkpt>
      <trkpt lat="45.04406" lon="2.50841">
        <ele>968.18</ele>
        <time>2024-09-21T14:35:33Z</time>
      </trkpt>
      <trkpt lat="45.04405" lon="2.50842">
        <ele>968.18</ele>
        <time>2024-09-21T14:35:49Z</time>
      </trkpt>
      <trkpt lat="45.04406" lon="2.50842">
        <ele>969.15</ele>
        <time>2024-09-21T14:36:05Z</time>
      </trkpt>
      <trkpt lat="45.04407" lon="2.50838">
        <ele>969.15</ele>
        <time>2024-09-21T14:36:08Z</time>
      </trkpt>
      <trkpt lat="45.04407" lon="2.50814">
        <ele>969.15</ele>
        <time>2024-09-21T14:36:24Z</time>
      </trkpt>
      <trkpt lat="45.04411" lon="2.50795">
        <ele>969.63</ele>
        <time>2024-09-21T14:36:38Z</time>
      </trkpt>
      <trkpt lat="45.04414" lon="2.50791">
        <ele>969.15</ele>
        <time>2024-09-21T14:36:41Z</time>
      </trkpt>
      <trkpt lat="45.04424" lon="2.50782">
        <ele>966.26</ele>
        <time>2024-09-21T14:36:55Z</time>
      </trkpt>
      <trkpt lat="45.04432" lon="2.50777">
        <ele>964.34</ele>
        <time>2024-09-21T14:37:08Z</time>
      </trkpt>
      <trkpt lat="45.04442" lon="2.5077">
        <ele>963.38</ele>
        <time>2024-09-21T14:37:26Z</time>
      </trkpt>
      <trkpt lat="45.04447" lon="2.50767">
        <ele>961.94</ele>
        <time>2024-09-21T14:37:32Z</time>
      </trkpt>
      <trkpt lat="45.04463" lon="2.50757">
        <ele>958.09</ele>
        <time>2024-09-21T14:37:51Z</time>
      </trkpt>
      <trkpt lat="45.04475" lon="2.5075">
        <ele>954.73</ele>
        <time>2024-09-21T14:38:04Z</time>
      </trkpt>
      <trkpt lat="45.04491" lon="2.50741">
        <ele>949.92</ele>
        <time>2024-09-21T14:38:22Z</time>
      </trkpt>
      <trkpt lat="45.04506" lon="2.50739">
        <ele>946.56</ele>
        <time>2024-09-21T14:38:38Z</time>
      </trkpt>
      <trkpt lat="45.04509" lon="2.50741">
        <ele>946.56</ele>
        <time>2024-09-21T14:38:41Z</time>
      </trkpt>
      <trkpt lat="45.04513" lon="2.50747">
        <ele>946.56</ele>
        <time>2024-09-21T14:38:46Z</time>
      </trkpt>
      <trkpt lat="45.04521" lon="2.50762">
        <ele>946.56</ele>
        <time>2024-09-21T14:39:02Z</time>
      </trkpt>
      <trkpt lat="45.04532" lon="2.50766">
        <ele>944.15</ele>
        <time>2024-09-21T14:39:20Z</time>
      </trkpt>
      <trkpt lat="45.04541" lon="2.50769">
        <ele>942.23</ele>
        <time>2024-09-21T14:39:29Z</time>
      </trkpt>
      <trkpt lat="45.04555" lon="2.50774">
        <ele>941.27</ele>
        <time>2024-09-21T14:39:44Z</time>
      </trkpt>
      <trkpt lat="45.04564" lon="2.50772">
        <ele>941.27</ele>
        <time>2024-09-21T14:39:58Z</time>
      </trkpt>
      <trkpt lat="45.04579" lon="2.50766">
        <ele>939.35</ele>
        <time>2024-09-21T14:40:12Z</time>
      </trkpt>
      <trkpt lat="45.04582" lon="2.50765">
        <ele>939.35</ele>
        <time>2024-09-21T14:40:15Z</time>
      </trkpt>
      <trkpt lat="45.04597" lon="2.50752">
        <ele>936.46</ele>
        <time>2024-09-21T14:40:33Z</time>
      </trkpt>
      <trkpt lat="45.04612" lon="2.5074">
        <ele>935.02</ele>
        <time>2024-09-21T14:40:50Z</time>
      </trkpt>
      <trkpt lat="45.04621" lon="2.50736">
        <ele>932.62</ele>
        <time>2024-09-21T14:41:01Z</time>
      </trkpt>
      <trkpt lat="45.04625" lon="2.50756">
        <ele>930.21</ele>
        <time>2024-09-21T14:41:18Z</time>
      </trkpt>
      <trkpt lat="45.0462" lon="2.50771">
        <ele>927.33</ele>
        <time>2024-09-21T14:41:33Z</time>
      </trkpt>
      <trkpt lat="45.04618" lon="2.50782">
        <ele>925.41</ele>
        <time>2024-09-21T14:41:48Z</time>
      </trkpt>
      <trkpt lat="45.04618" lon="2.50799">
        <ele>923</ele>
        <time>2024-09-21T14:42:02Z</time>
      </trkpt>
      <trkpt lat="45.04618" lon="2.50814">
        <ele>921.08</ele>
        <time>2024-09-21T14:42:15Z</time>
      </trkpt>
      <trkpt lat="45.04621" lon="2.50833">
        <ele>919.64</ele>
        <time>2024-09-21T14:42:30Z</time>
      </trkpt>
      <trkpt lat="45.04625" lon="2.50852">
        <ele>915.79</ele>
        <time>2024-09-21T14:42:45Z</time>
      </trkpt>
      <trkpt lat="45.04626" lon="2.50872">
        <ele>910.03</ele>
        <time>2024-09-21T14:43:01Z</time>
      </trkpt>
      <trkpt lat="45.04626" lon="2.50889">
        <ele>905.22</ele>
        <time>2024-09-21T14:43:16Z</time>
      </trkpt>
      <trkpt lat="45.04623" lon="2.50905">
        <ele>901.37</ele>
        <time>2024-09-21T14:43:34Z</time>
      </trkpt>
      <trkpt lat="45.04622" lon="2.50926">
        <ele>898.49</ele>
        <time>2024-09-21T14:43:53Z</time>
      </trkpt>
      <trkpt lat="45.04626" lon="2.50948">
        <ele>897.05</ele>
        <time>2024-09-21T14:44:10Z</time>
      </trkpt>
      <trkpt lat="45.04637" lon="2.50967">
        <ele>898.01</ele>
        <time>2024-09-21T14:44:27Z</time>
      </trkpt>
      <trkpt lat="45.04649" lon="2.50966">
        <ele>896.57</ele>
        <time>2024-09-21T14:44:45Z</time>
      </trkpt>
      <trkpt lat="45.04665" lon="2.50964">
        <ele>893.2</ele>
        <time>2024-09-21T14:45:03Z</time>
      </trkpt>
      <trkpt lat="45.0468" lon="2.50973">
        <ele>889.36</ele>
        <time>2024-09-21T14:45:22Z</time>
      </trkpt>
      <trkpt lat="45.04697" lon="2.50988">
        <ele>888.4</ele>
        <time>2024-09-21T14:45:39Z</time>
      </trkpt>
      <trkpt lat="45.04716" lon="2.50999">
        <ele>895.12</ele>
        <time>2024-09-21T14:45:55Z</time>
      </trkpt>
      <trkpt lat="45.04729" lon="2.51007">
        <ele>898.01</ele>
        <time>2024-09-21T14:46:11Z</time>
      </trkpt>
      <trkpt lat="45.04739" lon="2.51013">
        <ele>898.49</ele>
        <time>2024-09-21T14:46:22Z</time>
      </trkpt>
      <trkpt lat="45.04752" lon="2.51017">
        <ele>898.97</ele>
        <time>2024-09-21T14:46:33Z</time>
      </trkpt>
      <trkpt lat="45.04765" lon="2.5102">
        <ele>900.89</ele>
        <time>2024-09-21T14:46:48Z</time>
      </trkpt>
      <trkpt lat="45.04777" lon="2.5103">
        <ele>903.3</ele>
        <time>2024-09-21T14:47:04Z</time>
      </trkpt>
      <trkpt lat="45.04778" lon="2.51051">
        <ele>901.85</ele>
        <time>2024-09-21T14:47:23Z</time>
      </trkpt>
      <trkpt lat="45.04779" lon="2.5107">
        <ele>900.41</ele>
        <time>2024-09-21T14:47:40Z</time>
      </trkpt>
      <trkpt lat="45.04782" lon="2.51091">
        <ele>899.93</ele>
        <time>2024-09-21T14:47:57Z</time>
      </trkpt>
      <trkpt lat="45.0479" lon="2.51115">
        <ele>896.09</ele>
        <time>2024-09-21T14:48:16Z</time>
      </trkpt>
      <trkpt lat="45.048" lon="2.51133">
        <ele>891.76</ele>
        <time>2024-09-21T14:48:35Z</time>
      </trkpt>
      <trkpt lat="45.04805" lon="2.51125">
        <ele>885.51</ele>
        <time>2024-09-21T14:48:50Z</time>
      </trkpt>
      <trkpt lat="45.0481" lon="2.51107">
        <ele>880.22</ele>
        <time>2024-09-21T14:49:05Z</time>
      </trkpt>
      <trkpt lat="45.04817" lon="2.51094">
        <ele>873.98</ele>
        <time>2024-09-21T14:49:19Z</time>
      </trkpt>
      <trkpt lat="45.0483" lon="2.51074">
        <ele>865.32</ele>
        <time>2024-09-21T14:49:37Z</time>
      </trkpt>
      <trkpt lat="45.04846" lon="2.51057">
        <ele>865.8</ele>
        <time>2024-09-21T14:49:55Z</time>
      </trkpt>
      <trkpt lat="45.04852" lon="2.51044">
        <ele>860.04</ele>
        <time>2024-09-21T14:50:11Z</time>
      </trkpt>
      <trkpt lat="45.04869" lon="2.51028">
        <ele>857.63</ele>
        <time>2024-09-21T14:50:30Z</time>
      </trkpt>
      <trkpt lat="45.04883" lon="2.5102">
        <ele>854.75</ele>
        <time>2024-09-21T14:50:48Z</time>
      </trkpt>
      <trkpt lat="45.04898" lon="2.51014">
        <ele>854.75</ele>
        <time>2024-09-21T14:51:06Z</time>
      </trkpt>
      <trkpt lat="45.04906" lon="2.51015">
        <ele>849.94</ele>
        <time>2024-09-21T14:51:25Z</time>
      </trkpt>
      <trkpt lat="45.04915" lon="2.51023">
        <ele>847.54</ele>
        <time>2024-09-21T14:51:43Z</time>
      </trkpt>
      <trkpt lat="45.04911" lon="2.51035">
        <ele>844.66</ele>
        <time>2024-09-21T14:52:01Z</time>
      </trkpt>
      <trkpt lat="45.04907" lon="2.51048">
        <ele>844.18</ele>
        <time>2024-09-21T14:52:15Z</time>
      </trkpt>
      <trkpt lat="45.04904" lon="2.51068">
        <ele>842.73</ele>
        <time>2024-09-21T14:52:33Z</time>
      </trkpt>
      <trkpt lat="45.04915" lon="2.51084">
        <ele>842.25</ele>
        <time>2024-09-21T14:52:52Z</time>
      </trkpt>
      <trkpt lat="45.04928" lon="2.51088">
        <ele>841.29</ele>
        <time>2024-09-21T14:53:14Z</time>
      </trkpt>
      <trkpt lat="45.04945" lon="2.51095">
        <ele>849.94</ele>
        <time>2024-09-21T14:53:30Z</time>
      </trkpt>
      <trkpt lat="45.04951" lon="2.51106">
        <ele>847.54</ele>
        <time>2024-09-21T14:53:45Z</time>
      </trkpt>
      <trkpt lat="45.04955" lon="2.51113">
        <ele>844.66</ele>
        <time>2024-09-21T14:54:00Z</time>
      </trkpt>
      <trkpt lat="45.04955" lon="2.51117">
        <ele>843.69</ele>
        <time>2024-09-21T14:54:26Z</time>
      </trkpt>
      <trkpt lat="45.04954" lon="2.5111">
        <ele>844.18</ele>
        <time>2024-09-21T14:54:44Z</time>
      </trkpt>
      <trkpt lat="45.04956" lon="2.51111">
        <ele>843.69</ele>
        <time>2024-09-21T14:55:15Z</time>
      </trkpt>
      <trkpt lat="45.04962" lon="2.51123">
        <ele>840.81</ele>
        <time>2024-09-21T14:55:29Z</time>
      </trkpt>
      <trkpt lat="45.0497" lon="2.51136">
        <ele>836.48</ele>
        <time>2024-09-21T14:55:48Z</time>
      </trkpt>
      <trkpt lat="45.04981" lon="2.5114">
        <ele>833.12</ele>
        <time>2024-09-21T14:56:06Z</time>
      </trkpt>
      <trkpt lat="45.04982" lon="2.51139">
        <ele>828.79</ele>
        <time>2024-09-21T14:56:28Z</time>
      </trkpt>
      <trkpt lat="45.04986" lon="2.51136">
        <ele>836</ele>
        <time>2024-09-21T14:56:54Z</time>
      </trkpt>
      <trkpt lat="45.04985" lon="2.51132">
        <ele>838.89</ele>
        <time>2024-09-21T14:57:19Z</time>
      </trkpt>
      <trkpt lat="45.04983" lon="2.51133">
        <ele>837.45</ele>
        <time>2024-09-21T14:57:41Z</time>
      </trkpt>
      <trkpt lat="45.04984" lon="2.51131">
        <ele>839.37</ele>
        <time>2024-09-21T14:58:02Z</time>
      </trkpt>
      <trkpt lat="45.04984" lon="2.51127">
        <ele>840.81</ele>
        <time>2024-09-21T14:58:18Z</time>
      </trkpt>
      <trkpt lat="45.04984" lon="2.51126">
        <ele>841.29</ele>
        <time>2024-09-21T14:58:38Z</time>
      </trkpt>
      <trkpt lat="45.04986" lon="2.51128">
        <ele>839.37</ele>
        <time>2024-09-21T14:58:55Z</time>
      </trkpt>
      <trkpt lat="45.04985" lon="2.51129">
        <ele>836.96</ele>
        <time>2024-09-21T14:59:18Z</time>
      </trkpt>
      <trkpt lat="45.04986" lon="2.5113">
        <ele>838.89</ele>
        <time>2024-09-21T14:59:40Z</time>
      </trkpt>
      <trkpt lat="45.04992" lon="2.51136">
        <ele>837.93</ele>
        <time>2024-09-21T14:59:59Z</time>
      </trkpt>
      <trkpt lat="45.05003" lon="2.51146">
        <ele>833.6</ele>
        <time>2024-09-21T15:00:16Z</time>
      </trkpt>
      <trkpt lat="45.05014" lon="2.51153">
        <ele>829.76</ele>
        <time>2024-09-21T15:00:32Z</time>
      </trkpt>
      <trkpt lat="45.05026" lon="2.51161">
        <ele>825.43</ele>
        <time>2024-09-21T15:00:46Z</time>
      </trkpt>
      <trkpt lat="45.05037" lon="2.51172">
        <ele>820.14</ele>
        <time>2024-09-21T15:01:03Z</time>
      </trkpt>
      <trkpt lat="45.05045" lon="2.51179">
        <ele>817.26</ele>
        <time>2024-09-21T15:01:18Z</time>
      </trkpt>
      <trkpt lat="45.05055" lon="2.51188">
        <ele>817.26</ele>
        <time>2024-09-21T15:01:34Z</time>
      </trkpt>
      <trkpt lat="45.05064" lon="2.51193">
        <ele>816.3</ele>
        <time>2024-09-21T15:01:49Z</time>
      </trkpt>
      <trkpt lat="45.05078" lon="2.512">
        <ele>814.85</ele>
        <time>2024-09-21T15:02:03Z</time>
      </trkpt>
      <trkpt lat="45.05088" lon="2.51212">
        <ele>813.41</ele>
        <time>2024-09-21T15:02:18Z</time>
      </trkpt>
      <trkpt lat="45.05098" lon="2.51222">
        <ele>811.97</ele>
        <time>2024-09-21T15:02:34Z</time>
      </trkpt>
      <trkpt lat="45.05109" lon="2.51235">
        <ele>807.16</ele>
        <time>2024-09-21T15:02:53Z</time>
      </trkpt>
      <trkpt lat="45.0512" lon="2.51245">
        <ele>804.76</ele>
        <time>2024-09-21T15:03:08Z</time>
      </trkpt>
      <trkpt lat="45.05131" lon="2.51247">
        <ele>803.8</ele>
        <time>2024-09-21T15:03:22Z</time>
      </trkpt>
      <trkpt lat="45.05149" lon="2.51236">
        <ele>802.84</ele>
        <time>2024-09-21T15:03:39Z</time>
      </trkpt>
      <trkpt lat="45.0516" lon="2.51227">
        <ele>802.36</ele>
        <time>2024-09-21T15:03:53Z</time>
      </trkpt>
      <trkpt lat="45.05162" lon="2.51222">
        <ele>804.28</ele>
        <time>2024-09-21T15:04:07Z</time>
      </trkpt>
      <trkpt lat="45.05153" lon="2.51217">
        <ele>805.24</ele>
        <time>2024-09-21T15:04:24Z</time>
      </trkpt>
      <trkpt lat="45.05154" lon="2.51208">
        <ele>805.24</ele>
        <time>2024-09-21T15:04:32Z</time>
      </trkpt>
      <trkpt lat="45.05152" lon="2.51183">
        <ele>803.32</ele>
        <time>2024-09-21T15:04:50Z</time>
      </trkpt>
      <trkpt lat="45.05146" lon="2.51161">
        <ele>801.4</ele>
        <time>2024-09-21T15:05:05Z</time>
      </trkpt>
      <trkpt lat="45.05141" lon="2.51154">
        <ele>799.95</ele>
        <time>2024-09-21T15:05:12Z</time>
      </trkpt>
      <trkpt lat="45.05133" lon="2.51132">
        <ele>799.95</ele>
        <time>2024-09-21T15:05:28Z</time>
      </trkpt>
      <trkpt lat="45.0513" lon="2.5112">
        <ele>800.44</ele>
        <time>2024-09-21T15:05:43Z</time>
      </trkpt>
      <trkpt lat="45.05136" lon="2.51112">
        <ele>800.92</ele>
        <time>2024-09-21T15:05:55Z</time>
      </trkpt>
      <trkpt lat="45.05133" lon="2.51114">
        <ele>800.44</ele>
        <time>2024-09-21T15:06:01Z</time>
      </trkpt>
      <trkpt lat="45.05125" lon="2.51117">
        <ele>798.03</ele>
        <time>2024-09-21T15:06:14Z</time>
      </trkpt>
      <trkpt lat="45.0512" lon="2.51116">
        <ele>796.59</ele>
        <time>2024-09-21T15:06:19Z</time>
      </trkpt>
      <trkpt lat="45.05114" lon="2.51103">
        <ele>796.59</ele>
        <time>2024-09-21T15:06:31Z</time>
      </trkpt>
      <trkpt lat="45.05114" lon="2.51083">
        <ele>795.15</ele>
        <time>2024-09-21T15:06:46Z</time>
      </trkpt>
      <trkpt lat="45.05115" lon="2.51077">
        <ele>796.11</ele>
        <time>2024-09-21T15:07:05Z</time>
      </trkpt>
      <trkpt lat="45.05115" lon="2.51075">
        <ele>796.11</ele>
        <time>2024-09-21T15:07:06Z</time>
      </trkpt>
      <trkpt lat="45.0512" lon="2.51062">
        <ele>796.59</ele>
        <time>2024-09-21T15:07:21Z</time>
      </trkpt>
      <trkpt lat="45.05121" lon="2.51054">
        <ele>797.07</ele>
        <time>2024-09-21T15:07:37Z</time>
      </trkpt>
      <trkpt lat="45.05124" lon="2.51051">
        <ele>797.55</ele>
        <time>2024-09-21T15:07:52Z</time>
      </trkpt>
      <trkpt lat="45.0512" lon="2.51057">
        <ele>797.07</ele>
        <time>2024-09-21T15:08:13Z</time>
      </trkpt>
      <trkpt lat="45.05119" lon="2.5106">
        <ele>797.07</ele>
        <time>2024-09-21T15:08:15Z</time>
      </trkpt>
      <trkpt lat="45.05117" lon="2.51064">
        <ele>795.63</ele>
        <time>2024-09-21T15:08:30Z</time>
      </trkpt>
      <trkpt lat="45.05117" lon="2.51064">
        <ele>796.11</ele>
        <time>2024-09-21T15:08:52Z</time>
      </trkpt>
      <trkpt lat="45.05119" lon="2.51063">
        <ele>796.59</ele>
        <time>2024-09-21T15:09:18Z</time>
      </trkpt>
      <trkpt lat="45.0512" lon="2.51063">
        <ele>795.15</ele>
        <time>2024-09-21T15:09:40Z</time>
      </trkpt>
      <trkpt lat="45.05119" lon="2.51061">
        <ele>796.11</ele>
        <time>2024-09-21T15:10:04Z</time>
      </trkpt>
      <trkpt lat="45.05119" lon="2.51062">
        <ele>794.19</ele>
        <time>2024-09-21T15:10:31Z</time>
      </trkpt>
      <trkpt lat="45.05114" lon="2.51065">
        <ele>792.26</ele>
        <time>2024-09-21T15:10:41Z</time>
      </trkpt>
      <trkpt lat="45.05112" lon="2.51062">
        <ele>791.78</ele>
        <time>2024-09-21T15:10:44Z</time>
      </trkpt>
      <trkpt lat="45.05104" lon="2.51052">
        <ele>790.34</ele>
        <time>2024-09-21T15:10:55Z</time>
      </trkpt>
      <trkpt lat="45.05103" lon="2.51045">
        <ele>790.34</ele>
        <time>2024-09-21T15:11:00Z</time>
      </trkpt>
      <trkpt lat="45.05093" lon="2.51032">
        <ele>789.38</ele>
        <time>2024-09-21T15:11:15Z</time>
      </trkpt>
      <trkpt lat="45.05088" lon="2.51031">
        <ele>788.42</ele>
        <time>2024-09-21T15:11:30Z</time>
      </trkpt>
      <trkpt lat="45.05086" lon="2.51032">
        <ele>787.94</ele>
        <time>2024-09-21T15:11:48Z</time>
      </trkpt>
      <trkpt lat="45.05091" lon="2.51027">
        <ele>786.98</ele>
        <time>2024-09-21T15:12:05Z</time>
      </trkpt>
      <trkpt lat="45.05102" lon="2.51017">
        <ele>785.05</ele>
        <time>2024-09-21T15:12:22Z</time>
      </trkpt>
      <trkpt lat="45.05116" lon="2.51006">
        <ele>781.69</ele>
        <time>2024-09-21T15:12:43Z</time>
      </trkpt>
      <trkpt lat="45.05112" lon="2.50986">
        <ele>779.77</ele>
        <time>2024-09-21T15:13:00Z</time>
      </trkpt>
      <trkpt lat="45.0511" lon="2.50975">
        <ele>778.32</ele>
        <time>2024-09-21T15:13:09Z</time>
      </trkpt>
      <trkpt lat="45.05101" lon="2.50951">
        <ele>776.88</ele>
        <time>2024-09-21T15:13:25Z</time>
      </trkpt>
      <trkpt lat="45.051" lon="2.50935">
        <ele>779.77</ele>
        <time>2024-09-21T15:13:38Z</time>
      </trkpt>
      <trkpt lat="45.05098" lon="2.50922">
        <ele>779.77</ele>
        <time>2024-09-21T15:13:50Z</time>
      </trkpt>
      <trkpt lat="45.05096" lon="2.50906">
        <ele>779.29</ele>
        <time>2024-09-21T15:14:05Z</time>
      </trkpt>
      <trkpt lat="45.05094" lon="2.509">
        <ele>780.25</ele>
        <time>2024-09-21T15:14:09Z</time>
      </trkpt>
      <trkpt lat="45.05091" lon="2.50886">
        <ele>778.81</ele>
        <time>2024-09-21T15:14:24Z</time>
      </trkpt>
      <trkpt lat="45.05085" lon="2.50866">
        <ele>778.32</ele>
        <time>2024-09-21T15:14:39Z</time>
      </trkpt>
      <trkpt lat="45.05083" lon="2.50862">
        <ele>778.32</ele>
        <time>2024-09-21T15:14:42Z</time>
      </trkpt>
      <trkpt lat="45.0508" lon="2.50852">
        <ele>778.32</ele>
        <time>2024-09-21T15:14:48Z</time>
      </trkpt>
      <trkpt lat="45.05073" lon="2.50831">
        <ele>778.81</ele>
        <time>2024-09-21T15:15:02Z</time>
      </trkpt>
      <trkpt lat="45.05066" lon="2.50808">
        <ele>778.81</ele>
        <time>2024-09-21T15:15:18Z</time>
      </trkpt>
      <trkpt lat="45.05062" lon="2.50789">
        <ele>777.84</ele>
        <time>2024-09-21T15:15:31Z</time>
      </trkpt>
      <trkpt lat="45.05059" lon="2.50771">
        <ele>776.88</ele>
        <time>2024-09-21T15:15:44Z</time>
      </trkpt>
      <trkpt lat="45.05054" lon="2.50746">
        <ele>777.36</ele>
        <time>2024-09-21T15:16:00Z</time>
      </trkpt>
      <trkpt lat="45.05053" lon="2.50741">
        <ele>776.88</ele>
        <time>2024-09-21T15:16:04Z</time>
      </trkpt>
      <trkpt lat="45.05053" lon="2.50735">
        <ele>777.36</ele>
        <time>2024-09-21T15:16:08Z</time>
      </trkpt>
      <trkpt lat="45.05045" lon="2.50715">
        <ele>775.44</ele>
        <time>2024-09-21T15:16:24Z</time>
      </trkpt>
      <trkpt lat="45.05044" lon="2.50711">
        <ele>775.44</ele>
        <time>2024-09-21T15:16:27Z</time>
      </trkpt>
      <trkpt lat="45.05043" lon="2.50707">
        <ele>775.44</ele>
        <time>2024-09-21T15:16:30Z</time>
      </trkpt>
      <trkpt lat="45.05041" lon="2.50695">
        <ele>774.48</ele>
        <time>2024-09-21T15:16:39Z</time>
      </trkpt>
      <trkpt lat="45.05041" lon="2.5069">
        <ele>774</ele>
        <time>2024-09-21T15:16:42Z</time>
      </trkpt>
      <trkpt lat="45.05041" lon="2.50663">
        <ele>770.63</ele>
        <time>2024-09-21T15:17:00Z</time>
      </trkpt>
      <trkpt lat="45.05037" lon="2.50639">
        <ele>769.19</ele>
        <time>2024-09-21T15:17:15Z</time>
      </trkpt>
      <trkpt lat="45.05036" lon="2.50633">
        <ele>768.71</ele>
        <time>2024-09-21T15:17:19Z</time>
      </trkpt>
      <trkpt lat="45.05034" lon="2.50621">
        <ele>769.19</ele>
        <time>2024-09-21T15:17:26Z</time>
      </trkpt>
      <trkpt lat="45.05029" lon="2.50597">
        <ele>768.71</ele>
        <time>2024-09-21T15:17:42Z</time>
      </trkpt>
      <trkpt lat="45.05026" lon="2.5058">
        <ele>765.83</ele>
        <time>2024-09-21T15:17:56Z</time>
      </trkpt>
      <trkpt lat="45.05024" lon="2.50553">
        <ele>761.98</ele>
        <time>2024-09-21T15:18:15Z</time>
      </trkpt>
      <trkpt lat="45.0502" lon="2.50529">
        <ele>764.39</ele>
        <time>2024-09-21T15:18:30Z</time>
      </trkpt>
      <trkpt lat="45.05019" lon="2.50519">
        <ele>766.31</ele>
        <time>2024-09-21T15:18:47Z</time>
      </trkpt>
      <trkpt lat="45.05029" lon="2.50503">
        <ele>762.94</ele>
        <time>2024-09-21T15:19:04Z</time>
      </trkpt>
      <trkpt lat="45.05034" lon="2.50497">
        <ele>761.02</ele>
        <time>2024-09-21T15:19:11Z</time>
      </trkpt>
      <trkpt lat="45.05046" lon="2.5048">
        <ele>758.14</ele>
        <time>2024-09-21T15:19:26Z</time>
      </trkpt>
      <trkpt lat="45.05052" lon="2.50472">
        <ele>756.69</ele>
        <time>2024-09-21T15:19:33Z</time>
      </trkpt>
      <trkpt lat="45.05054" lon="2.50467">
        <ele>755.73</ele>
        <time>2024-09-21T15:19:37Z</time>
      </trkpt>
      <trkpt lat="45.05063" lon="2.50447">
        <ele>754.29</ele>
        <time>2024-09-21T15:19:53Z</time>
      </trkpt>
      <trkpt lat="45.05064" lon="2.50434">
        <ele>753.81</ele>
        <time>2024-09-21T15:20:08Z</time>
      </trkpt>
      <trkpt lat="45.05068" lon="2.50424">
        <ele>749.49</ele>
        <time>2024-09-21T15:20:21Z</time>
      </trkpt>
      <trkpt lat="45.05081" lon="2.50408">
        <ele>745.16</ele>
        <time>2024-09-21T15:20:39Z</time>
      </trkpt>
      <trkpt lat="45.05096" lon="2.50399">
        <ele>742.76</ele>
        <time>2024-09-21T15:20:58Z</time>
      </trkpt>
      <trkpt lat="45.05104" lon="2.50395">
        <ele>745.16</ele>
        <time>2024-09-21T15:21:15Z</time>
      </trkpt>
      <trkpt lat="45.05114" lon="2.50392">
        <ele>747.56</ele>
        <time>2024-09-21T15:21:31Z</time>
      </trkpt>
      <trkpt lat="45.05123" lon="2.50369">
        <ele>752.85</ele>
        <time>2024-09-21T15:21:48Z</time>
      </trkpt>
      <trkpt lat="45.05123" lon="2.50345">
        <ele>758.14</ele>
        <time>2024-09-21T15:22:06Z</time>
      </trkpt>
      <trkpt lat="45.05126" lon="2.50325">
        <ele>761.98</ele>
        <time>2024-09-21T15:22:24Z</time>
      </trkpt>
      <trkpt lat="45.05127" lon="2.50309">
        <ele>764.87</ele>
        <time>2024-09-21T15:22:38Z</time>
      </trkpt>
      <trkpt lat="45.05126" lon="2.50293">
        <ele>768.71</ele>
        <time>2024-09-21T15:22:52Z</time>
      </trkpt>
      <trkpt lat="45.05125" lon="2.5028">
        <ele>770.63</ele>
        <time>2024-09-21T15:23:06Z</time>
      </trkpt>
      <trkpt lat="45.05124" lon="2.50264">
        <ele>772.56</ele>
        <time>2024-09-21T15:23:22Z</time>
      </trkpt>
      <trkpt lat="45.05122" lon="2.5025">
        <ele>773.04</ele>
        <time>2024-09-21T15:23:38Z</time>
      </trkpt>
      <trkpt lat="45.05122" lon="2.5025">
        <ele>771.6</ele>
        <time>2024-09-21T15:23:58Z</time>
      </trkpt>
      <trkpt lat="45.05119" lon="2.50235">
        <ele>773.52</ele>
        <time>2024-09-21T15:24:14Z</time>
      </trkpt>
      <trkpt lat="45.05117" lon="2.50218">
        <ele>774</ele>
        <time>2024-09-21T15:24:30Z</time>
      </trkpt>
      <trkpt lat="45.05114" lon="2.50201">
        <ele>775.92</ele>
        <time>2024-09-21T15:24:46Z</time>
      </trkpt>
      <trkpt lat="45.05114" lon="2.50193">
        <ele>776.4</ele>
        <time>2024-09-21T15:25:00Z</time>
      </trkpt>
      <trkpt lat="45.05111" lon="2.50181">
        <ele>774.96</ele>
        <time>2024-09-21T15:25:09Z</time>
      </trkpt>
      <trkpt lat="45.05108" lon="2.50167">
        <ele>774.48</ele>
        <time>2024-09-21T15:25:19Z</time>
      </trkpt>
      <trkpt lat="45.05102" lon="2.50146">
        <ele>772.08</ele>
        <time>2024-09-21T15:25:34Z</time>
      </trkpt>
      <trkpt lat="45.05097" lon="2.50129">
        <ele>771.11</ele>
        <time>2024-09-21T15:25:49Z</time>
      </trkpt>
      <trkpt lat="45.051" lon="2.50124">
        <ele>771.11</ele>
        <time>2024-09-21T15:26:03Z</time>
      </trkpt>
      <trkpt lat="45.05102" lon="2.50124">
        <ele>771.11</ele>
        <time>2024-09-21T15:26:19Z</time>
      </trkpt>
      <trkpt lat="45.051" lon="2.50121">
        <ele>772.08</ele>
        <time>2024-09-21T15:26:41Z</time>
      </trkpt>
      <trkpt lat="45.05097" lon="2.50114">
        <ele>773.52</ele>
        <time>2024-09-21T15:26:51Z</time>
      </trkpt>
      <trkpt lat="45.05094" lon="2.50111">
        <ele>772.08</ele>
        <time>2024-09-21T15:26:56Z</time>
      </trkpt>
      <trkpt lat="45.05084" lon="2.50098">
        <ele>768.23</ele>
        <time>2024-09-21T15:27:11Z</time>
      </trkpt>
      <trkpt lat="45.05076" lon="2.50066">
        <ele>765.83</ele>
        <time>2024-09-21T15:27:32Z</time>
      </trkpt>
      <trkpt lat="45.05074" lon="2.50035">
        <ele>763.9</ele>
        <time>2024-09-21T15:27:50Z</time>
      </trkpt>
      <trkpt lat="45.05073" lon="2.50008">
        <ele>763.9</ele>
        <time>2024-09-21T15:28:07Z</time>
      </trkpt>
      <trkpt lat="45.05073" lon="2.49978">
        <ele>764.87</ele>
        <time>2024-09-21T15:28:25Z</time>
      </trkpt>
      <trkpt lat="45.05071" lon="2.49947">
        <ele>764.39</ele>
        <time>2024-09-21T15:28:44Z</time>
      </trkpt>
      <trkpt lat="45.05074" lon="2.49917">
        <ele>764.39</ele>
        <time>2024-09-21T15:29:04Z</time>
      </trkpt>
      <trkpt lat="45.05077" lon="2.49889">
        <ele>764.39</ele>
        <time>2024-09-21T15:29:23Z</time>
      </trkpt>
      <trkpt lat="45.0508" lon="2.49857">
        <ele>764.87</ele>
        <time>2024-09-21T15:29:42Z</time>
      </trkpt>
      <trkpt lat="45.05081" lon="2.49833">
        <ele>763.42</ele>
        <time>2024-09-21T15:29:57Z</time>
      </trkpt>
      <trkpt lat="45.0508" lon="2.49814">
        <ele>762.94</ele>
        <time>2024-09-21T15:30:09Z</time>
      </trkpt>
      <trkpt lat="45.0508" lon="2.49809">
        <ele>762.46</ele>
        <time>2024-09-21T15:30:13Z</time>
      </trkpt>
      <trkpt lat="45.0508" lon="2.49806">
        <ele>762.46</ele>
        <time>2024-09-21T15:30:15Z</time>
      </trkpt>
      <trkpt lat="45.05077" lon="2.49781">
        <ele>761.02</ele>
        <time>2024-09-21T15:30:33Z</time>
      </trkpt>
      <trkpt lat="45.05071" lon="2.49757">
        <ele>761.02</ele>
        <time>2024-09-21T15:30:49Z</time>
      </trkpt>
      <trkpt lat="45.05065" lon="2.49727">
        <ele>759.58</ele>
        <time>2024-09-21T15:31:06Z</time>
      </trkpt>
      <trkpt lat="45.05061" lon="2.49697">
        <ele>758.14</ele>
        <time>2024-09-21T15:31:25Z</time>
      </trkpt>
      <trkpt lat="45.05064" lon="2.49663">
        <ele>757.18</ele>
        <time>2024-09-21T15:31:44Z</time>
      </trkpt>
      <trkpt lat="45.05066" lon="2.49632">
        <ele>757.18</ele>
        <time>2024-09-21T15:32:03Z</time>
      </trkpt>
      <trkpt lat="45.05067" lon="2.4963">
        <ele>757.18</ele>
        <time>2024-09-21T15:32:05Z</time>
      </trkpt>
      <trkpt lat="45.05068" lon="2.49604">
        <ele>754.29</ele>
        <time>2024-09-21T15:32:22Z</time>
      </trkpt>
      <trkpt lat="45.05068" lon="2.49573">
        <ele>760.06</ele>
        <time>2024-09-21T15:32:39Z</time>
      </trkpt>
      <trkpt lat="45.05069" lon="2.49547">
        <ele>762.94</ele>
        <time>2024-09-21T15:32:55Z</time>
      </trkpt>
      <trkpt lat="45.05069" lon="2.49504">
        <ele>765.83</ele>
        <time>2024-09-21T15:33:21Z</time>
      </trkpt>
      <trkpt lat="45.05072" lon="2.49471">
        <ele>768.71</ele>
        <time>2024-09-21T15:33:41Z</time>
      </trkpt>
      <trkpt lat="45.05077" lon="2.49444">
        <ele>767.27</ele>
        <time>2024-09-21T15:33:59Z</time>
      </trkpt>
      <trkpt lat="45.05085" lon="2.49423">
        <ele>768.23</ele>
        <time>2024-09-21T15:34:17Z</time>
      </trkpt>
      <trkpt lat="45.05092" lon="2.49399">
        <ele>769.19</ele>
        <time>2024-09-21T15:34:35Z</time>
      </trkpt>
      <trkpt lat="45.05094" lon="2.49371">
        <ele>772.08</ele>
        <time>2024-09-21T15:34:53Z</time>
      </trkpt>
      <trkpt lat="45.05092" lon="2.49346">
        <ele>774.96</ele>
        <time>2024-09-21T15:35:11Z</time>
      </trkpt>
      <trkpt lat="45.05091" lon="2.49333">
        <ele>777.36</ele>
        <time>2024-09-21T15:35:26Z</time>
      </trkpt>
      <trkpt lat="45.05089" lon="2.49316">
        <ele>776.88</ele>
        <time>2024-09-21T15:35:41Z</time>
      </trkpt>
      <trkpt lat="45.05087" lon="2.49302">
        <ele>774.48</ele>
        <time>2024-09-21T15:35:57Z</time>
      </trkpt>
      <trkpt lat="45.05088" lon="2.49298">
        <ele>772.56</ele>
        <time>2024-09-21T15:36:16Z</time>
      </trkpt>
      <trkpt lat="45.05087" lon="2.49289">
        <ele>772.56</ele>
        <time>2024-09-21T15:36:36Z</time>
      </trkpt>
      <trkpt lat="45.05084" lon="2.49287">
        <ele>773.04</ele>
        <time>2024-09-21T15:36:58Z</time>
      </trkpt>
      <trkpt lat="45.05087" lon="2.49295">
        <ele>771.6</ele>
        <time>2024-09-21T15:37:14Z</time>
      </trkpt>
      <trkpt lat="45.05084" lon="2.49287">
        <ele>773.04</ele>
        <time>2024-09-21T15:37:31Z</time>
      </trkpt>
      <trkpt lat="45.05085" lon="2.49286">
        <ele>777.84</ele>
        <time>2024-09-21T15:37:51Z</time>
      </trkpt>
      <trkpt lat="45.05084" lon="2.49284">
        <ele>777.84</ele>
        <time>2024-09-21T15:38:13Z</time>
      </trkpt>
      <trkpt lat="45.05083" lon="2.49278">
        <ele>776.4</ele>
        <time>2024-09-21T15:38:36Z</time>
      </trkpt>
      <trkpt lat="45.05083" lon="2.49265">
        <ele>776.4</ele>
        <time>2024-09-21T15:38:51Z</time>
      </trkpt>
      <trkpt lat="45.05084" lon="2.49244">
        <ele>774.48</ele>
        <time>2024-09-21T15:39:06Z</time>
      </trkpt>
      <trkpt lat="45.05084" lon="2.49223">
        <ele>774.48</ele>
        <time>2024-09-21T15:39:21Z</time>
      </trkpt>
      <trkpt lat="45.05084" lon="2.4922">
        <ele>774.48</ele>
        <time>2024-09-21T15:39:23Z</time>
      </trkpt>
      <trkpt lat="45.05083" lon="2.49199">
        <ele>773.04</ele>
        <time>2024-09-21T15:39:39Z</time>
      </trkpt>
      <trkpt lat="45.05083" lon="2.49173">
        <ele>770.63</ele>
        <time>2024-09-21T15:39:55Z</time>
      </trkpt>
      <trkpt lat="45.05078" lon="2.49143">
        <ele>768.71</ele>
        <time>2024-09-21T15:40:14Z</time>
      </trkpt>
      <trkpt lat="45.05082" lon="2.49118">
        <ele>765.35</ele>
        <time>2024-09-21T15:40:30Z</time>
      </trkpt>
      <trkpt lat="45.05088" lon="2.49089">
        <ele>764.87</ele>
        <time>2024-09-21T15:40:49Z</time>
      </trkpt>
      <trkpt lat="45.05094" lon="2.49053">
        <ele>765.83</ele>
        <time>2024-09-21T15:41:08Z</time>
      </trkpt>
      <trkpt lat="45.05097" lon="2.49025">
        <ele>765.35</ele>
        <time>2024-09-21T15:41:26Z</time>
      </trkpt>
      <trkpt lat="45.05097" lon="2.49024">
        <ele>765.35</ele>
        <time>2024-09-21T15:41:27Z</time>
      </trkpt>
      <trkpt lat="45.05098" lon="2.48986">
        <ele>770.15</ele>
        <time>2024-09-21T15:41:48Z</time>
      </trkpt>
      <trkpt lat="45.051" lon="2.48959">
        <ele>774.48</ele>
        <time>2024-09-21T15:42:06Z</time>
      </trkpt>
      <trkpt lat="45.05103" lon="2.48932">
        <ele>776.4</ele>
        <time>2024-09-21T15:42:22Z</time>
      </trkpt>
      <trkpt lat="45.05105" lon="2.48923">
        <ele>776.88</ele>
        <time>2024-09-21T15:42:27Z</time>
      </trkpt>
      <trkpt lat="45.05105" lon="2.48902">
        <ele>777.36</ele>
        <time>2024-09-21T15:42:39Z</time>
      </trkpt>
      <trkpt lat="45.05108" lon="2.48881">
        <ele>774.96</ele>
        <time>2024-09-21T15:42:55Z</time>
      </trkpt>
      <trkpt lat="45.05115" lon="2.48858">
        <ele>771.6</ele>
        <time>2024-09-21T15:43:12Z</time>
      </trkpt>
      <trkpt lat="45.05116" lon="2.48848">
        <ele>772.56</ele>
        <time>2024-09-21T15:43:17Z</time>
      </trkpt>
      <trkpt lat="45.05124" lon="2.48823">
        <ele>773.52</ele>
        <time>2024-09-21T15:43:32Z</time>
      </trkpt>
      <trkpt lat="45.05131" lon="2.48804">
        <ele>773.04</ele>
        <time>2024-09-21T15:43:46Z</time>
      </trkpt>
      <trkpt lat="45.05136" lon="2.48786">
        <ele>774.48</ele>
        <time>2024-09-21T15:43:57Z</time>
      </trkpt>
      <trkpt lat="45.05143" lon="2.48758">
        <ele>776.88</ele>
        <time>2024-09-21T15:44:14Z</time>
      </trkpt>
      <trkpt lat="45.05144" lon="2.48757">
        <ele>776.88</ele>
        <time>2024-09-21T15:44:15Z</time>
      </trkpt>
      <trkpt lat="45.05145" lon="2.48752">
        <ele>776.88</ele>
        <time>2024-09-21T15:44:18Z</time>
      </trkpt>
      <trkpt lat="45.05148" lon="2.48742">
        <ele>777.36</ele>
        <time>2024-09-21T15:44:25Z</time>
      </trkpt>
      <trkpt lat="45.05155" lon="2.48718">
        <ele>778.32</ele>
        <time>2024-09-21T15:44:41Z</time>
      </trkpt>
      <trkpt lat="45.05168" lon="2.48692">
        <ele>779.29</ele>
        <time>2024-09-21T15:45:02Z</time>
      </trkpt>
      <trkpt lat="45.05182" lon="2.48666">
        <ele>779.77</ele>
        <time>2024-09-21T15:45:20Z</time>
      </trkpt>
      <trkpt lat="45.05188" lon="2.48644">
        <ele>780.25</ele>
        <time>2024-09-21T15:45:36Z</time>
      </trkpt>
      <trkpt lat="45.05188" lon="2.48643">
        <ele>780.25</ele>
        <time>2024-09-21T15:45:37Z</time>
      </trkpt>
      <trkpt lat="45.0519" lon="2.48618">
        <ele>781.69</ele>
        <time>2024-09-21T15:45:54Z</time>
      </trkpt>
      <trkpt lat="45.05189" lon="2.48595">
        <ele>784.09</ele>
        <time>2024-09-21T15:46:09Z</time>
      </trkpt>
      <trkpt lat="45.0519" lon="2.48585">
        <ele>784.09</ele>
        <time>2024-09-21T15:46:21Z</time>
      </trkpt>
      <trkpt lat="45.05194" lon="2.48568">
        <ele>785.53</ele>
        <time>2024-09-21T15:46:36Z</time>
      </trkpt>
      <trkpt lat="45.05199" lon="2.48561">
        <ele>787.46</ele>
        <time>2024-09-21T15:46:54Z</time>
      </trkpt>
      <trkpt lat="45.05201" lon="2.48557">
        <ele>788.42</ele>
        <time>2024-09-21T15:46:57Z</time>
      </trkpt>
      <trkpt lat="45.05209" lon="2.48542">
        <ele>787.94</ele>
        <time>2024-09-21T15:47:11Z</time>
      </trkpt>
      <trkpt lat="45.0522" lon="2.48526">
        <ele>788.9</ele>
        <time>2024-09-21T15:47:27Z</time>
      </trkpt>
      <trkpt lat="45.0523" lon="2.48512">
        <ele>789.86</ele>
        <time>2024-09-21T15:47:43Z</time>
      </trkpt>
      <trkpt lat="45.05241" lon="2.48499">
        <ele>791.3</ele>
        <time>2024-09-21T15:47:57Z</time>
      </trkpt>
      <trkpt lat="45.05252" lon="2.48486">
        <ele>793.71</ele>
        <time>2024-09-21T15:48:12Z</time>
      </trkpt>
      <trkpt lat="45.05263" lon="2.48476">
        <ele>794.67</ele>
        <time>2024-09-21T15:48:27Z</time>
      </trkpt>
      <trkpt lat="45.05278" lon="2.48465">
        <ele>797.55</ele>
        <time>2024-09-21T15:48:45Z</time>
      </trkpt>
      <trkpt lat="45.05285" lon="2.48456">
        <ele>799.95</ele>
        <time>2024-09-21T15:48:57Z</time>
      </trkpt>
      <trkpt lat="45.0529" lon="2.48439">
        <ele>801.4</ele>
        <time>2024-09-21T15:49:13Z</time>
      </trkpt>
      <trkpt lat="45.05296" lon="2.48431">
        <ele>803.8</ele>
        <time>2024-09-21T15:49:21Z</time>
      </trkpt>
      <trkpt lat="45.0531" lon="2.48419">
        <ele>803.8</ele>
        <time>2024-09-21T15:49:37Z</time>
      </trkpt>
      <trkpt lat="45.05321" lon="2.48408">
        <ele>803.8</ele>
        <time>2024-09-21T15:49:52Z</time>
      </trkpt>
      <trkpt lat="45.05333" lon="2.48397">
        <ele>804.28</ele>
        <time>2024-09-21T15:50:06Z</time>
      </trkpt>
      <trkpt lat="45.05347" lon="2.48387">
        <ele>803.8</ele>
        <time>2024-09-21T15:50:23Z</time>
      </trkpt>
      <trkpt lat="45.05361" lon="2.4838">
        <ele>802.36</ele>
        <time>2024-09-21T15:50:40Z</time>
      </trkpt>
      <trkpt lat="45.05366" lon="2.48386">
        <ele>802.84</ele>
        <time>2024-09-21T15:50:55Z</time>
      </trkpt>
      <trkpt lat="45.05358" lon="2.48404">
        <ele>801.88</ele>
        <time>2024-09-21T15:51:14Z</time>
      </trkpt>
      <trkpt lat="45.05356" lon="2.48407">
        <ele>802.36</ele>
        <time>2024-09-21T15:51:17Z</time>
      </trkpt>
      <trkpt lat="45.05342" lon="2.48427">
        <ele>807.16</ele>
        <time>2024-09-21T15:51:34Z</time>
      </trkpt>
      <trkpt lat="45.05338" lon="2.48442">
        <ele>808.61</ele>
        <time>2024-09-21T15:51:46Z</time>
      </trkpt>
      <trkpt lat="45.05335" lon="2.48464">
        <ele>809.57</ele>
        <time>2024-09-21T15:52:03Z</time>
      </trkpt>
      <trkpt lat="45.05335" lon="2.4849">
        <ele>812.45</ele>
        <time>2024-09-21T15:52:21Z</time>
      </trkpt>
      <trkpt lat="45.05336" lon="2.48511">
        <ele>815.34</ele>
        <time>2024-09-21T15:52:37Z</time>
      </trkpt>
      <trkpt lat="45.05338" lon="2.48534">
        <ele>813.89</ele>
        <time>2024-09-21T15:52:56Z</time>
      </trkpt>
      <trkpt lat="45.05336" lon="2.48559">
        <ele>810.53</ele>
        <time>2024-09-21T15:53:16Z</time>
      </trkpt>
      <trkpt lat="45.05335" lon="2.48581">
        <ele>809.09</ele>
        <time>2024-09-21T15:53:32Z</time>
      </trkpt>
      <trkpt lat="45.05335" lon="2.48602">
        <ele>807.16</ele>
        <time>2024-09-21T15:53:50Z</time>
      </trkpt>
      <trkpt lat="45.05335" lon="2.48608">
        <ele>806.2</ele>
        <time>2024-09-21T15:54:11Z</time>
      </trkpt>
    </trkseg>
  </trk>
</gpx>